<?xml version="1.0" encoding="UTF-8" standalone="no" ?>
<gpx xmlns="http://www.topografix.com/GPX/1/1" xmlns:xsi="http://www.w3.org/2001/XMLSchema-instance" xsi:schemaLocation="http://www.topografix.com/GPX/1/1 http://www.topografix.com/GPX/1/1/gpx.xsd" version="1.1" creator="VisuGPX - https://www.visugpx.com">
  <metadata>
    <name>65 - PEDESTRE - Cauterets - Cambasque un aller retour depuis le village - Le 30/12/2015</name>
    <desc><![CDATA[Possible cette année au mois de décembre grâce au manque de neige]]></desc>
  </metadata>
  <wpt lat="42.88998" lon="-0.12157">
    <ele>1098.6640625</ele>
    <name><![CDATA[003]]></name>
    <desc><![CDATA[30-DEC-15 11:13:31]]></desc>
    <cmt><![CDATA[30-DEC-15 11:13:31]]></cmt>
  </wpt>
  <wpt lat="42.89015" lon="-0.12467">
    <ele>1122.4565429688</ele>
    <name><![CDATA[004]]></name>
    <desc><![CDATA[30-DEC-15 11:18:12]]></desc>
    <cmt><![CDATA[30-DEC-15 11:18:12]]></cmt>
  </wpt>
  <wpt lat="42.8883" lon="-0.1273">
    <ele>1228.4409179688</ele>
    <name><![CDATA[005]]></name>
    <desc><![CDATA[30-DEC-15 11:30:16]]></desc>
    <cmt><![CDATA[30-DEC-15 11:30:16]]></cmt>
  </wpt>
  <wpt lat="42.88767" lon="-0.12938">
    <ele>1250.5512695312</ele>
    <name><![CDATA[006]]></name>
    <desc><![CDATA[30-DEC-15 11:36:14]]></desc>
    <cmt><![CDATA[30-DEC-15 11:36:14]]></cmt>
  </wpt>
  <wpt lat="42.88606" lon="-0.13352">
    <ele>1293.3295898438</ele>
    <name><![CDATA[007]]></name>
    <desc><![CDATA[30-DEC-15 13:15:53]]></desc>
    <cmt><![CDATA[30-DEC-15 13:15:53]]></cmt>
  </wpt>
  <wpt lat="42.88249" lon="-0.14278">
    <ele>1361.1018066406</ele>
    <name><![CDATA[Cauterets-Stat]]></name>
    <desc><![CDATA[Cauterets-Station Du Lys]]></desc>
    <cmt><![CDATA[Cauterets-Station Du Lys]]></cmt>
  </wpt>
  <wpt lat="42.88222" lon="-0.14268">
    <ele>1359.9001464844</ele>
    <name><![CDATA[Parking-Termin]]></name>
    <desc><![CDATA[Parking-Terminus-1360m]]></desc>
    <cmt><![CDATA[Parking-Terminus-1360m]]></cmt>
  </wpt>
  <trk>
    <name><![CDATA[ACTIVE LOG 005]]></name>
    <trkseg>
      <trkpt lat="42.88864" lon="-0.11416">
        <ele>931.65478515625</ele>
        <time>2015-12-30T09:42:24Z</time>
      </trkpt>
      <trkpt lat="42.88863" lon="-0.11417">
        <ele>931.65478515625</ele>
        <time>2015-12-30T09:42:25Z</time>
      </trkpt>
      <trkpt lat="42.88862" lon="-0.11418">
        <ele>930.69360351562</ele>
        <time>2015-12-30T09:42:26Z</time>
      </trkpt>
      <trkpt lat="42.88858" lon="-0.11423">
        <ele>930.212890625</ele>
        <time>2015-12-30T09:42:33Z</time>
      </trkpt>
      <trkpt lat="42.88857" lon="-0.11437">
        <ele>931.17431640625</ele>
        <time>2015-12-30T09:42:43Z</time>
      </trkpt>
      <trkpt lat="42.88858" lon="-0.11468">
        <ele>931.17431640625</ele>
        <time>2015-12-30T09:43:05Z</time>
      </trkpt>
      <trkpt lat="42.88857" lon="-0.11472">
        <ele>931.17431640625</ele>
        <time>2015-12-30T09:43:09Z</time>
      </trkpt>
      <trkpt lat="42.88855" lon="-0.11492">
        <ele>930.69360351562</ele>
        <time>2015-12-30T09:43:23Z</time>
      </trkpt>
      <trkpt lat="42.88855" lon="-0.11493">
        <ele>931.17431640625</ele>
        <time>2015-12-30T09:43:24Z</time>
      </trkpt>
      <trkpt lat="42.88841" lon="-0.11518">
        <ele>930.69360351562</ele>
        <time>2015-12-30T09:43:46Z</time>
      </trkpt>
      <trkpt lat="42.8884" lon="-0.11537">
        <ele>930.69360351562</ele>
        <time>2015-12-30T09:44:06Z</time>
      </trkpt>
      <trkpt lat="42.88839" lon="-0.1155">
        <ele>930.69360351562</ele>
        <time>2015-12-30T09:44:21Z</time>
      </trkpt>
      <trkpt lat="42.88832" lon="-0.1158">
        <ele>932.13549804688</ele>
        <time>2015-12-30T09:44:43Z</time>
      </trkpt>
      <trkpt lat="42.88829" lon="-0.11604">
        <ele>932.6162109375</ele>
        <time>2015-12-30T09:44:58Z</time>
      </trkpt>
      <trkpt lat="42.88826" lon="-0.11608">
        <ele>932.6162109375</ele>
        <time>2015-12-30T09:45:02Z</time>
      </trkpt>
      <trkpt lat="42.88823" lon="-0.11609">
        <ele>933.0966796875</ele>
        <time>2015-12-30T09:45:06Z</time>
      </trkpt>
      <trkpt lat="42.88818" lon="-0.11617">
        <ele>934.53881835938</ele>
        <time>2015-12-30T09:45:23Z</time>
      </trkpt>
      <trkpt lat="42.88816" lon="-0.11617">
        <ele>935.5</ele>
        <time>2015-12-30T09:45:28Z</time>
      </trkpt>
      <trkpt lat="42.88808" lon="-0.11622">
        <ele>938.38403320312</ele>
        <time>2015-12-30T09:45:44Z</time>
      </trkpt>
      <trkpt lat="42.88815" lon="-0.11628">
        <ele>939.82592773438</ele>
        <time>2015-12-30T09:45:58Z</time>
      </trkpt>
      <trkpt lat="42.88814" lon="-0.11634">
        <ele>940.78735351562</ele>
        <time>2015-12-30T09:46:12Z</time>
      </trkpt>
      <trkpt lat="42.88811" lon="-0.11639">
        <ele>944.15209960938</ele>
        <time>2015-12-30T09:46:21Z</time>
      </trkpt>
      <trkpt lat="42.88809" lon="-0.11641">
        <ele>945.11328125</ele>
        <time>2015-12-30T09:46:25Z</time>
      </trkpt>
      <trkpt lat="42.88803" lon="-0.11643">
        <ele>947.03588867188</ele>
        <time>2015-12-30T09:46:44Z</time>
      </trkpt>
      <trkpt lat="42.888" lon="-0.11645">
        <ele>947.99731445312</ele>
        <time>2015-12-30T09:46:58Z</time>
      </trkpt>
      <trkpt lat="42.88806" lon="-0.11656">
        <ele>951.36181640625</ele>
        <time>2015-12-30T09:47:13Z</time>
      </trkpt>
      <trkpt lat="42.88799" lon="-0.11652">
        <ele>953.28442382812</ele>
        <time>2015-12-30T09:47:26Z</time>
      </trkpt>
      <trkpt lat="42.88788" lon="-0.11648">
        <ele>953.76513671875</ele>
        <time>2015-12-30T09:47:41Z</time>
      </trkpt>
      <trkpt lat="42.88777" lon="-0.11642">
        <ele>956.64916992188</ele>
        <time>2015-12-30T09:47:54Z</time>
      </trkpt>
      <trkpt lat="42.88765" lon="-0.11634">
        <ele>957.1298828125</ele>
        <time>2015-12-30T09:48:08Z</time>
      </trkpt>
      <trkpt lat="42.88751" lon="-0.11628">
        <ele>957.1298828125</ele>
        <time>2015-12-30T09:48:23Z</time>
      </trkpt>
      <trkpt lat="42.88745" lon="-0.11624">
        <ele>959.05249023438</ele>
        <time>2015-12-30T09:48:42Z</time>
      </trkpt>
      <trkpt lat="42.88732" lon="-0.11619">
        <ele>960.013671875</ele>
        <time>2015-12-30T09:48:55Z</time>
      </trkpt>
      <trkpt lat="42.8873" lon="-0.11617">
        <ele>960.013671875</ele>
        <time>2015-12-30T09:48:57Z</time>
      </trkpt>
      <trkpt lat="42.88724" lon="-0.11625">
        <ele>960.49438476562</ele>
        <time>2015-12-30T09:49:12Z</time>
      </trkpt>
      <trkpt lat="42.88724" lon="-0.11624">
        <ele>960.013671875</ele>
        <time>2015-12-30T09:49:27Z</time>
      </trkpt>
      <trkpt lat="42.88725" lon="-0.11622">
        <ele>960.97509765625</ele>
        <time>2015-12-30T09:50:11Z</time>
      </trkpt>
      <trkpt lat="42.88728" lon="-0.11625">
        <ele>961.45581054688</ele>
        <time>2015-12-30T09:50:50Z</time>
      </trkpt>
      <trkpt lat="42.88722" lon="-0.11623">
        <ele>962.4169921875</ele>
        <time>2015-12-30T09:51:09Z</time>
      </trkpt>
      <trkpt lat="42.88725" lon="-0.11624">
        <ele>962.89770507812</ele>
        <time>2015-12-30T09:51:28Z</time>
      </trkpt>
      <trkpt lat="42.88736" lon="-0.11633">
        <ele>964.8203125</ele>
        <time>2015-12-30T09:51:42Z</time>
      </trkpt>
      <trkpt lat="42.88757" lon="-0.11652">
        <ele>964.33959960938</ele>
        <time>2015-12-30T09:52:04Z</time>
      </trkpt>
      <trkpt lat="42.88776" lon="-0.11667">
        <ele>965.78173828125</ele>
        <time>2015-12-30T09:52:24Z</time>
      </trkpt>
      <trkpt lat="42.88779" lon="-0.11671">
        <ele>966.74291992188</ele>
        <time>2015-12-30T09:52:38Z</time>
      </trkpt>
      <trkpt lat="42.88764" lon="-0.11662">
        <ele>967.7041015625</ele>
        <time>2015-12-30T09:52:54Z</time>
      </trkpt>
      <trkpt lat="42.88749" lon="-0.11651">
        <ele>967.2236328125</ele>
        <time>2015-12-30T09:53:11Z</time>
      </trkpt>
      <trkpt lat="42.88731" lon="-0.1164">
        <ele>968.18481445312</ele>
        <time>2015-12-30T09:53:31Z</time>
      </trkpt>
      <trkpt lat="42.88727" lon="-0.11637">
        <ele>969.14624023438</ele>
        <time>2015-12-30T09:53:36Z</time>
      </trkpt>
      <trkpt lat="42.88721" lon="-0.11638">
        <ele>971.06884765625</ele>
        <time>2015-12-30T09:53:44Z</time>
      </trkpt>
      <trkpt lat="42.88738" lon="-0.11657">
        <ele>972.51098632812</ele>
        <time>2015-12-30T09:54:04Z</time>
      </trkpt>
      <trkpt lat="42.88753" lon="-0.11671">
        <ele>972.99169921875</ele>
        <time>2015-12-30T09:54:20Z</time>
      </trkpt>
      <trkpt lat="42.88771" lon="-0.11687">
        <ele>974.43359375</ele>
        <time>2015-12-30T09:54:39Z</time>
      </trkpt>
      <trkpt lat="42.88786" lon="-0.11701">
        <ele>976.35620117188</ele>
        <time>2015-12-30T09:54:58Z</time>
      </trkpt>
      <trkpt lat="42.88783" lon="-0.11699">
        <ele>977.31762695312</ele>
        <time>2015-12-30T09:55:02Z</time>
      </trkpt>
      <trkpt lat="42.88766" lon="-0.11691">
        <ele>978.75952148438</ele>
        <time>2015-12-30T09:55:20Z</time>
      </trkpt>
      <trkpt lat="42.88758" lon="-0.11687">
        <ele>980.68212890625</ele>
        <time>2015-12-30T09:55:29Z</time>
      </trkpt>
      <trkpt lat="42.88749" lon="-0.11681">
        <ele>983.08520507812</ele>
        <time>2015-12-30T09:55:39Z</time>
      </trkpt>
      <trkpt lat="42.88745" lon="-0.11679">
        <ele>983.08520507812</ele>
        <time>2015-12-30T09:55:44Z</time>
      </trkpt>
      <trkpt lat="42.88742" lon="-0.11676">
        <ele>983.56591796875</ele>
        <time>2015-12-30T09:55:48Z</time>
      </trkpt>
      <trkpt lat="42.88735" lon="-0.11672">
        <ele>984.04663085938</ele>
        <time>2015-12-30T09:55:55Z</time>
      </trkpt>
      <trkpt lat="42.88718" lon="-0.11664">
        <ele>985.48852539062</ele>
        <time>2015-12-30T09:56:12Z</time>
      </trkpt>
      <trkpt lat="42.88704" lon="-0.11665">
        <ele>985.48852539062</ele>
        <time>2015-12-30T09:56:29Z</time>
      </trkpt>
      <trkpt lat="42.88697" lon="-0.11669">
        <ele>987.89184570312</ele>
        <time>2015-12-30T09:56:40Z</time>
      </trkpt>
      <trkpt lat="42.88708" lon="-0.11677">
        <ele>989.81469726562</ele>
        <time>2015-12-30T09:56:54Z</time>
      </trkpt>
      <trkpt lat="42.88709" lon="-0.11678">
        <ele>989.333984375</ele>
        <time>2015-12-30T09:56:55Z</time>
      </trkpt>
      <trkpt lat="42.88721" lon="-0.1169">
        <ele>991.25659179688</ele>
        <time>2015-12-30T09:57:12Z</time>
      </trkpt>
      <trkpt lat="42.8873" lon="-0.11696">
        <ele>992.21801757812</ele>
        <time>2015-12-30T09:57:22Z</time>
      </trkpt>
      <trkpt lat="42.88741" lon="-0.11707">
        <ele>995.58251953125</ele>
        <time>2015-12-30T09:57:36Z</time>
      </trkpt>
      <trkpt lat="42.88754" lon="-0.11722">
        <ele>996.5439453125</ele>
        <time>2015-12-30T09:57:54Z</time>
      </trkpt>
      <trkpt lat="42.8877" lon="-0.11743">
        <ele>998.94702148438</ele>
        <time>2015-12-30T09:58:16Z</time>
      </trkpt>
      <trkpt lat="42.88777" lon="-0.11755">
        <ele>999.90844726562</ele>
        <time>2015-12-30T09:58:31Z</time>
      </trkpt>
      <trkpt lat="42.88788" lon="-0.11762">
        <ele>1001.3503417969</ele>
        <time>2015-12-30T09:58:46Z</time>
      </trkpt>
      <trkpt lat="42.88801" lon="-0.11773">
        <ele>1003.2729492188</ele>
        <time>2015-12-30T09:59:02Z</time>
      </trkpt>
      <trkpt lat="42.88803" lon="-0.11778">
        <ele>1004.7150878906</ele>
        <time>2015-12-30T09:59:23Z</time>
      </trkpt>
      <trkpt lat="42.88797" lon="-0.11777">
        <ele>1005.1958007812</ele>
        <time>2015-12-30T09:59:35Z</time>
      </trkpt>
      <trkpt lat="42.88785" lon="-0.11772">
        <ele>1007.1184082031</ele>
        <time>2015-12-30T09:59:49Z</time>
      </trkpt>
      <trkpt lat="42.8877" lon="-0.11766">
        <ele>1009.5217285156</ele>
        <time>2015-12-30T10:00:07Z</time>
      </trkpt>
      <trkpt lat="42.88759" lon="-0.11754">
        <ele>1010.0021972656</ele>
        <time>2015-12-30T10:00:21Z</time>
      </trkpt>
      <trkpt lat="42.88745" lon="-0.11747">
        <ele>1012.8862304688</ele>
        <time>2015-12-30T10:00:37Z</time>
      </trkpt>
      <trkpt lat="42.88729" lon="-0.1174">
        <ele>1014.8088378906</ele>
        <time>2015-12-30T10:00:55Z</time>
      </trkpt>
      <trkpt lat="42.88715" lon="-0.11732">
        <ele>1016.7314453125</ele>
        <time>2015-12-30T10:01:11Z</time>
      </trkpt>
      <trkpt lat="42.88714" lon="-0.1174">
        <ele>1016.7314453125</ele>
        <time>2015-12-30T10:01:24Z</time>
      </trkpt>
      <trkpt lat="42.88721" lon="-0.11749">
        <ele>1018.1733398438</ele>
        <time>2015-12-30T10:01:36Z</time>
      </trkpt>
      <trkpt lat="42.88731" lon="-0.11758">
        <ele>1020.0961914062</ele>
        <time>2015-12-30T10:01:52Z</time>
      </trkpt>
      <trkpt lat="42.88741" lon="-0.11772">
        <ele>1021.0576171875</ele>
        <time>2015-12-30T10:02:09Z</time>
      </trkpt>
      <trkpt lat="42.88752" lon="-0.11786">
        <ele>1023.4609375</ele>
        <time>2015-12-30T10:02:27Z</time>
      </trkpt>
      <trkpt lat="42.88757" lon="-0.11801">
        <ele>1024.9028320312</ele>
        <time>2015-12-30T10:02:43Z</time>
      </trkpt>
      <trkpt lat="42.88771" lon="-0.11808">
        <ele>1025.3833007812</ele>
        <time>2015-12-30T10:02:59Z</time>
      </trkpt>
      <trkpt lat="42.88781" lon="-0.11813">
        <ele>1026.8254394531</ele>
        <time>2015-12-30T10:03:10Z</time>
      </trkpt>
      <trkpt lat="42.88795" lon="-0.11822">
        <ele>1028.748046875</ele>
        <time>2015-12-30T10:03:25Z</time>
      </trkpt>
      <trkpt lat="42.888" lon="-0.11829">
        <ele>1030.6706542969</ele>
        <time>2015-12-30T10:03:40Z</time>
      </trkpt>
      <trkpt lat="42.88788" lon="-0.11822">
        <ele>1033.0737304688</ele>
        <time>2015-12-30T10:03:58Z</time>
      </trkpt>
      <trkpt lat="42.88773" lon="-0.1182">
        <ele>1033.5544433594</ele>
        <time>2015-12-30T10:04:15Z</time>
      </trkpt>
      <trkpt lat="42.88759" lon="-0.11816">
        <ele>1035.4770507812</ele>
        <time>2015-12-30T10:04:32Z</time>
      </trkpt>
      <trkpt lat="42.88755" lon="-0.11811">
        <ele>1036.4387207031</ele>
        <time>2015-12-30T10:04:39Z</time>
      </trkpt>
      <trkpt lat="42.88739" lon="-0.11798">
        <ele>1038.361328125</ele>
        <time>2015-12-30T10:04:57Z</time>
      </trkpt>
      <trkpt lat="42.88727" lon="-0.11792">
        <ele>1039.3225097656</ele>
        <time>2015-12-30T10:05:12Z</time>
      </trkpt>
      <trkpt lat="42.88717" lon="-0.11786">
        <ele>1042.2065429688</ele>
        <time>2015-12-30T10:05:26Z</time>
      </trkpt>
      <trkpt lat="42.88702" lon="-0.11782">
        <ele>1043.6484375</ele>
        <time>2015-12-30T10:05:43Z</time>
      </trkpt>
      <trkpt lat="42.88698" lon="-0.11788">
        <ele>1045.5710449219</ele>
        <time>2015-12-30T10:05:59Z</time>
      </trkpt>
      <trkpt lat="42.88714" lon="-0.11801">
        <ele>1047.9743652344</ele>
        <time>2015-12-30T10:06:21Z</time>
      </trkpt>
      <trkpt lat="42.88722" lon="-0.11815">
        <ele>1049.4162597656</ele>
        <time>2015-12-30T10:06:39Z</time>
      </trkpt>
      <trkpt lat="42.88734" lon="-0.11833">
        <ele>1051.3388671875</ele>
        <time>2015-12-30T10:06:58Z</time>
      </trkpt>
      <trkpt lat="42.88746" lon="-0.11851">
        <ele>1053.7424316406</ele>
        <time>2015-12-30T10:07:16Z</time>
      </trkpt>
      <trkpt lat="42.88759" lon="-0.11864">
        <ele>1056.1455078125</ele>
        <time>2015-12-30T10:07:33Z</time>
      </trkpt>
      <trkpt lat="42.88776" lon="-0.11872">
        <ele>1057.5876464844</ele>
        <time>2015-12-30T10:07:53Z</time>
      </trkpt>
      <trkpt lat="42.88791" lon="-0.11884">
        <ele>1059.9907226562</ele>
        <time>2015-12-30T10:08:09Z</time>
      </trkpt>
      <trkpt lat="42.88805" lon="-0.11897">
        <ele>1062.8747558594</ele>
        <time>2015-12-30T10:08:26Z</time>
      </trkpt>
      <trkpt lat="42.88822" lon="-0.11912">
        <ele>1063.8359375</ele>
        <time>2015-12-30T10:08:44Z</time>
      </trkpt>
      <trkpt lat="42.88836" lon="-0.11933">
        <ele>1067.2006835938</ele>
        <time>2015-12-30T10:09:03Z</time>
      </trkpt>
      <trkpt lat="42.88843" lon="-0.11958">
        <ele>1068.6428222656</ele>
        <time>2015-12-30T10:09:23Z</time>
      </trkpt>
      <trkpt lat="42.88855" lon="-0.11973">
        <ele>1071.5266113281</ele>
        <time>2015-12-30T10:09:40Z</time>
      </trkpt>
      <trkpt lat="42.88866" lon="-0.11977">
        <ele>1072.96875</ele>
        <time>2015-12-30T10:09:51Z</time>
      </trkpt>
      <trkpt lat="42.8888" lon="-0.1199">
        <ele>1073.9299316406</ele>
        <time>2015-12-30T10:10:08Z</time>
      </trkpt>
      <trkpt lat="42.88889" lon="-0.12014">
        <ele>1077.2946777344</ele>
        <time>2015-12-30T10:10:29Z</time>
      </trkpt>
      <trkpt lat="42.88899" lon="-0.12041">
        <ele>1080.1784667969</ele>
        <time>2015-12-30T10:10:52Z</time>
      </trkpt>
      <trkpt lat="42.8891" lon="-0.12065">
        <ele>1082.5817871094</ele>
        <time>2015-12-30T10:11:13Z</time>
      </trkpt>
      <trkpt lat="42.88918" lon="-0.12085">
        <ele>1084.5046386719</ele>
        <time>2015-12-30T10:11:29Z</time>
      </trkpt>
      <trkpt lat="42.88921" lon="-0.12106">
        <ele>1085.9465332031</ele>
        <time>2015-12-30T10:11:45Z</time>
      </trkpt>
      <trkpt lat="42.88936" lon="-0.12124">
        <ele>1088.8305664062</ele>
        <time>2015-12-30T10:12:06Z</time>
      </trkpt>
      <trkpt lat="42.88953" lon="-0.12129">
        <ele>1091.2336425781</ele>
        <time>2015-12-30T10:12:24Z</time>
      </trkpt>
      <trkpt lat="42.88961" lon="-0.12129">
        <ele>1092.67578125</ele>
        <time>2015-12-30T10:12:39Z</time>
      </trkpt>
      <trkpt lat="42.88973" lon="-0.1213">
        <ele>1094.1176757812</ele>
        <time>2015-12-30T10:12:50Z</time>
      </trkpt>
      <trkpt lat="42.88989" lon="-0.1214">
        <ele>1095.5595703125</ele>
        <time>2015-12-30T10:13:07Z</time>
      </trkpt>
      <trkpt lat="42.88998" lon="-0.12157">
        <ele>1098.9240722656</ele>
        <time>2015-12-30T10:13:25Z</time>
      </trkpt>
      <trkpt lat="42.88996" lon="-0.1216">
        <ele>1097.0014648438</ele>
        <time>2015-12-30T10:13:41Z</time>
      </trkpt>
      <trkpt lat="42.89" lon="-0.12166">
        <ele>1098.443359375</ele>
        <time>2015-12-30T10:13:54Z</time>
      </trkpt>
      <trkpt lat="42.89003" lon="-0.12171">
        <ele>1098.443359375</ele>
        <time>2015-12-30T10:14:10Z</time>
      </trkpt>
      <trkpt lat="42.89001" lon="-0.12178">
        <ele>1099.4047851562</ele>
        <time>2015-12-30T10:14:25Z</time>
      </trkpt>
      <trkpt lat="42.88999" lon="-0.12201">
        <ele>1102.2888183594</ele>
        <time>2015-12-30T10:14:42Z</time>
      </trkpt>
      <trkpt lat="42.88998" lon="-0.12223">
        <ele>1103.2502441406</ele>
        <time>2015-12-30T10:15:00Z</time>
      </trkpt>
      <trkpt lat="42.88999" lon="-0.12228">
        <ele>1103.2502441406</ele>
        <time>2015-12-30T10:15:06Z</time>
      </trkpt>
      <trkpt lat="42.89" lon="-0.1225">
        <ele>1105.1728515625</ele>
        <time>2015-12-30T10:15:25Z</time>
      </trkpt>
      <trkpt lat="42.88999" lon="-0.12274">
        <ele>1108.0568847656</ele>
        <time>2015-12-30T10:15:44Z</time>
      </trkpt>
      <trkpt lat="42.88994" lon="-0.12296">
        <ele>1109.0180664062</ele>
        <time>2015-12-30T10:16:00Z</time>
      </trkpt>
      <trkpt lat="42.88995" lon="-0.12318">
        <ele>1111.9020996094</ele>
        <time>2015-12-30T10:16:17Z</time>
      </trkpt>
      <trkpt lat="42.88995" lon="-0.12334">
        <ele>1113.3439941406</ele>
        <time>2015-12-30T10:16:29Z</time>
      </trkpt>
      <trkpt lat="42.88996" lon="-0.12365">
        <ele>1115.2666015625</ele>
        <time>2015-12-30T10:16:50Z</time>
      </trkpt>
      <trkpt lat="42.88995" lon="-0.12379">
        <ele>1118.6313476562</ele>
        <time>2015-12-30T10:17:02Z</time>
      </trkpt>
      <trkpt lat="42.88991" lon="-0.12402">
        <ele>1118.1506347656</ele>
        <time>2015-12-30T10:17:20Z</time>
      </trkpt>
      <trkpt lat="42.89" lon="-0.12427">
        <ele>1120.0732421875</ele>
        <time>2015-12-30T10:17:40Z</time>
      </trkpt>
      <trkpt lat="42.89011" lon="-0.12455">
        <ele>1121.0346679688</ele>
        <time>2015-12-30T10:18:02Z</time>
      </trkpt>
      <trkpt lat="42.89018" lon="-0.12476">
        <ele>1120.5539550781</ele>
        <time>2015-12-30T10:18:20Z</time>
      </trkpt>
      <trkpt lat="42.89019" lon="-0.12483">
        <ele>1122.4765625</ele>
        <time>2015-12-30T10:18:30Z</time>
      </trkpt>
      <trkpt lat="42.89017" lon="-0.12487">
        <ele>1122.4765625</ele>
        <time>2015-12-30T10:18:51Z</time>
      </trkpt>
      <trkpt lat="42.89021" lon="-0.1248">
        <ele>1121.9958496094</ele>
        <time>2015-12-30T10:19:15Z</time>
      </trkpt>
      <trkpt lat="42.89024" lon="-0.12479">
        <ele>1121.9958496094</ele>
        <time>2015-12-30T10:19:22Z</time>
      </trkpt>
      <trkpt lat="42.89027" lon="-0.12478">
        <ele>1121.5151367188</ele>
        <time>2015-12-30T10:19:36Z</time>
      </trkpt>
      <trkpt lat="42.89015" lon="-0.12486">
        <ele>1122.4765625</ele>
        <time>2015-12-30T10:19:53Z</time>
      </trkpt>
      <trkpt lat="42.89008" lon="-0.12487">
        <ele>1126.3217773438</ele>
        <time>2015-12-30T10:20:10Z</time>
      </trkpt>
      <trkpt lat="42.89006" lon="-0.12494">
        <ele>1128.2443847656</ele>
        <time>2015-12-30T10:20:24Z</time>
      </trkpt>
      <trkpt lat="42.89001" lon="-0.12497">
        <ele>1130.1669921875</ele>
        <time>2015-12-30T10:20:36Z</time>
      </trkpt>
      <trkpt lat="42.88994" lon="-0.12495">
        <ele>1132.5705566406</ele>
        <time>2015-12-30T10:20:48Z</time>
      </trkpt>
      <trkpt lat="42.88991" lon="-0.125">
        <ele>1134.0124511719</ele>
        <time>2015-12-30T10:20:59Z</time>
      </trkpt>
      <trkpt lat="42.88994" lon="-0.12514">
        <ele>1135.9350585938</ele>
        <time>2015-12-30T10:21:13Z</time>
      </trkpt>
      <trkpt lat="42.88997" lon="-0.12524">
        <ele>1136.8962402344</ele>
        <time>2015-12-30T10:21:25Z</time>
      </trkpt>
      <trkpt lat="42.89" lon="-0.12539">
        <ele>1139.2995605469</ele>
        <time>2015-12-30T10:21:39Z</time>
      </trkpt>
      <trkpt lat="42.89002" lon="-0.12554">
        <ele>1141.7028808594</ele>
        <time>2015-12-30T10:21:54Z</time>
      </trkpt>
      <trkpt lat="42.88996" lon="-0.12561">
        <ele>1145.0673828125</ele>
        <time>2015-12-30T10:22:06Z</time>
      </trkpt>
      <trkpt lat="42.88993" lon="-0.12556">
        <ele>1146.5095214844</ele>
        <time>2015-12-30T10:22:23Z</time>
      </trkpt>
      <trkpt lat="42.88984" lon="-0.12553">
        <ele>1148.4321289062</ele>
        <time>2015-12-30T10:22:37Z</time>
      </trkpt>
      <trkpt lat="42.88986" lon="-0.12567">
        <ele>1149.8742675781</ele>
        <time>2015-12-30T10:22:50Z</time>
      </trkpt>
      <trkpt lat="42.8898" lon="-0.12563">
        <ele>1151.3161621094</ele>
        <time>2015-12-30T10:23:03Z</time>
      </trkpt>
      <trkpt lat="42.88977" lon="-0.12563">
        <ele>1150.8354492188</ele>
        <time>2015-12-30T10:23:07Z</time>
      </trkpt>
      <trkpt lat="42.88969" lon="-0.12552">
        <ele>1153.2387695312</ele>
        <time>2015-12-30T10:23:20Z</time>
      </trkpt>
      <trkpt lat="42.88965" lon="-0.12536">
        <ele>1156.1225585938</ele>
        <time>2015-12-30T10:23:34Z</time>
      </trkpt>
      <trkpt lat="42.88961" lon="-0.12535">
        <ele>1159.0065917969</ele>
        <time>2015-12-30T10:23:48Z</time>
      </trkpt>
      <trkpt lat="42.88961" lon="-0.12536">
        <ele>1158.5258789062</ele>
        <time>2015-12-30T10:23:50Z</time>
      </trkpt>
      <trkpt lat="42.8896" lon="-0.12552">
        <ele>1161.4099121094</ele>
        <time>2015-12-30T10:24:03Z</time>
      </trkpt>
      <trkpt lat="42.88953" lon="-0.1257">
        <ele>1163.8129882812</ele>
        <time>2015-12-30T10:24:17Z</time>
      </trkpt>
      <trkpt lat="42.88946" lon="-0.12586">
        <ele>1166.2165527344</ele>
        <time>2015-12-30T10:24:31Z</time>
      </trkpt>
      <trkpt lat="42.88943" lon="-0.12602">
        <ele>1168.1391601562</ele>
        <time>2015-12-30T10:24:45Z</time>
      </trkpt>
      <trkpt lat="42.88939" lon="-0.12617">
        <ele>1170.0617675781</ele>
        <time>2015-12-30T10:25:00Z</time>
      </trkpt>
      <trkpt lat="42.8894" lon="-0.1263">
        <ele>1173.4265136719</ele>
        <time>2015-12-30T10:25:11Z</time>
      </trkpt>
      <trkpt lat="42.88939" lon="-0.12634">
        <ele>1173.4265136719</ele>
        <time>2015-12-30T10:25:15Z</time>
      </trkpt>
      <trkpt lat="42.88935" lon="-0.12645">
        <ele>1177.2717285156</ele>
        <time>2015-12-30T10:25:28Z</time>
      </trkpt>
      <trkpt lat="42.88925" lon="-0.12637">
        <ele>1180.1557617188</ele>
        <time>2015-12-30T10:25:42Z</time>
      </trkpt>
      <trkpt lat="42.88921" lon="-0.12643">
        <ele>1181.59765625</ele>
        <time>2015-12-30T10:25:54Z</time>
      </trkpt>
      <trkpt lat="42.88916" lon="-0.12649">
        <ele>1184.4816894531</ele>
        <time>2015-12-30T10:26:04Z</time>
      </trkpt>
      <trkpt lat="42.88915" lon="-0.1265">
        <ele>1185.4428710938</ele>
        <time>2015-12-30T10:26:06Z</time>
      </trkpt>
      <trkpt lat="42.88914" lon="-0.12649">
        <ele>1185.4428710938</ele>
        <time>2015-12-30T10:26:08Z</time>
      </trkpt>
      <trkpt lat="42.88906" lon="-0.12631">
        <ele>1187.3654785156</ele>
        <time>2015-12-30T10:26:24Z</time>
      </trkpt>
      <trkpt lat="42.88904" lon="-0.12628">
        <ele>1188.3269042969</ele>
        <time>2015-12-30T10:26:27Z</time>
      </trkpt>
      <trkpt lat="42.88899" lon="-0.12632">
        <ele>1191.2106933594</ele>
        <time>2015-12-30T10:26:40Z</time>
      </trkpt>
      <trkpt lat="42.88905" lon="-0.12637">
        <ele>1191.2106933594</ele>
        <time>2015-12-30T10:27:06Z</time>
      </trkpt>
      <trkpt lat="42.88906" lon="-0.12645">
        <ele>1191.69140625</ele>
        <time>2015-12-30T10:27:13Z</time>
      </trkpt>
      <trkpt lat="42.88898" lon="-0.12662">
        <ele>1194.0947265625</ele>
        <time>2015-12-30T10:27:28Z</time>
      </trkpt>
      <trkpt lat="42.88896" lon="-0.12665">
        <ele>1194.5751953125</ele>
        <time>2015-12-30T10:27:31Z</time>
      </trkpt>
      <trkpt lat="42.88895" lon="-0.12669">
        <ele>1195.0559082031</ele>
        <time>2015-12-30T10:27:34Z</time>
      </trkpt>
      <trkpt lat="42.88892" lon="-0.12672">
        <ele>1195.5366210938</ele>
        <time>2015-12-30T10:27:37Z</time>
      </trkpt>
      <trkpt lat="42.88886" lon="-0.1269">
        <ele>1198.4206542969</ele>
        <time>2015-12-30T10:27:51Z</time>
      </trkpt>
      <trkpt lat="42.88886" lon="-0.12696">
        <ele>1199.3820800781</ele>
        <time>2015-12-30T10:27:56Z</time>
      </trkpt>
      <trkpt lat="42.88884" lon="-0.12698">
        <ele>1200.3435058594</ele>
        <time>2015-12-30T10:27:58Z</time>
      </trkpt>
      <trkpt lat="42.88881" lon="-0.12698">
        <ele>1201.3046875</ele>
        <time>2015-12-30T10:28:01Z</time>
      </trkpt>
      <trkpt lat="42.88875" lon="-0.1268">
        <ele>1204.6691894531</ele>
        <time>2015-12-30T10:28:18Z</time>
      </trkpt>
      <trkpt lat="42.88871" lon="-0.12684">
        <ele>1207.5532226562</ele>
        <time>2015-12-30T10:28:28Z</time>
      </trkpt>
      <trkpt lat="42.88865" lon="-0.127">
        <ele>1210.9177246094</ele>
        <time>2015-12-30T10:28:42Z</time>
      </trkpt>
      <trkpt lat="42.88861" lon="-0.12705">
        <ele>1212.3598632812</ele>
        <time>2015-12-30T10:28:47Z</time>
      </trkpt>
      <trkpt lat="42.88852" lon="-0.1272">
        <ele>1215.2438964844</ele>
        <time>2015-12-30T10:29:02Z</time>
      </trkpt>
      <trkpt lat="42.88846" lon="-0.12733">
        <ele>1217.6469726562</ele>
        <time>2015-12-30T10:29:15Z</time>
      </trkpt>
      <trkpt lat="42.8884" lon="-0.12742">
        <ele>1221.01171875</ele>
        <time>2015-12-30T10:29:26Z</time>
      </trkpt>
      <trkpt lat="42.88831" lon="-0.12756">
        <ele>1223.8955078125</ele>
        <time>2015-12-30T10:29:41Z</time>
      </trkpt>
      <trkpt lat="42.8883" lon="-0.1275">
        <ele>1223.8955078125</ele>
        <time>2015-12-30T10:29:47Z</time>
      </trkpt>
      <trkpt lat="42.88831" lon="-0.12732">
        <ele>1227.2602539062</ele>
        <time>2015-12-30T10:30:03Z</time>
      </trkpt>
      <trkpt lat="42.88829" lon="-0.12728">
        <ele>1228.2216796875</ele>
        <time>2015-12-30T10:30:22Z</time>
      </trkpt>
      <trkpt lat="42.88831" lon="-0.12726">
        <ele>1228.2216796875</ele>
        <time>2015-12-30T10:30:42Z</time>
      </trkpt>
      <trkpt lat="42.88832" lon="-0.12735">
        <ele>1226.7795410156</ele>
        <time>2015-12-30T10:31:07Z</time>
      </trkpt>
      <trkpt lat="42.88833" lon="-0.12743">
        <ele>1227.2602539062</ele>
        <time>2015-12-30T10:31:19Z</time>
      </trkpt>
      <trkpt lat="42.88834" lon="-0.12744">
        <ele>1227.2602539062</ele>
        <time>2015-12-30T10:32:01Z</time>
      </trkpt>
      <trkpt lat="42.88833" lon="-0.12743">
        <ele>1227.2602539062</ele>
        <time>2015-12-30T10:32:35Z</time>
      </trkpt>
      <trkpt lat="42.88833" lon="-0.12734">
        <ele>1227.7407226562</ele>
        <time>2015-12-30T10:32:49Z</time>
      </trkpt>
      <trkpt lat="42.88831" lon="-0.12729">
        <ele>1228.7023925781</ele>
        <time>2015-12-30T10:32:54Z</time>
      </trkpt>
      <trkpt lat="42.8883" lon="-0.12729">
        <ele>1228.7023925781</ele>
        <time>2015-12-30T10:33:08Z</time>
      </trkpt>
      <trkpt lat="42.88825" lon="-0.12744">
        <ele>1230.625</ele>
        <time>2015-12-30T10:33:21Z</time>
      </trkpt>
      <trkpt lat="42.88825" lon="-0.1275">
        <ele>1230.1442871094</ele>
        <time>2015-12-30T10:33:26Z</time>
      </trkpt>
      <trkpt lat="42.88822" lon="-0.12773">
        <ele>1232.0668945312</ele>
        <time>2015-12-30T10:33:41Z</time>
      </trkpt>
      <trkpt lat="42.88823" lon="-0.12796">
        <ele>1233.9895019531</ele>
        <time>2015-12-30T10:33:57Z</time>
      </trkpt>
      <trkpt lat="42.88823" lon="-0.12798">
        <ele>1233.9895019531</ele>
        <time>2015-12-30T10:33:58Z</time>
      </trkpt>
      <trkpt lat="42.88827" lon="-0.12813">
        <ele>1236.3928222656</ele>
        <time>2015-12-30T10:34:10Z</time>
      </trkpt>
      <trkpt lat="42.88827" lon="-0.12819">
        <ele>1237.3540039062</ele>
        <time>2015-12-30T10:34:14Z</time>
      </trkpt>
      <trkpt lat="42.88823" lon="-0.12835">
        <ele>1237.8347167969</ele>
        <time>2015-12-30T10:34:26Z</time>
      </trkpt>
      <trkpt lat="42.88816" lon="-0.12854">
        <ele>1239.2766113281</ele>
        <time>2015-12-30T10:34:42Z</time>
      </trkpt>
      <trkpt lat="42.88813" lon="-0.1286">
        <ele>1241.19921875</ele>
        <time>2015-12-30T10:34:57Z</time>
      </trkpt>
      <trkpt lat="42.88807" lon="-0.12871">
        <ele>1243.1218261719</ele>
        <time>2015-12-30T10:35:10Z</time>
      </trkpt>
      <trkpt lat="42.88793" lon="-0.12893">
        <ele>1245.0446777344</ele>
        <time>2015-12-30T10:35:29Z</time>
      </trkpt>
      <trkpt lat="42.88779" lon="-0.12918">
        <ele>1247.4479980469</ele>
        <time>2015-12-30T10:35:51Z</time>
      </trkpt>
      <trkpt lat="42.88769" lon="-0.12931">
        <ele>1249.8513183594</ele>
        <time>2015-12-30T10:36:08Z</time>
      </trkpt>
      <trkpt lat="42.88762" lon="-0.1295">
        <ele>1251.7739257812</ele>
        <time>2015-12-30T10:36:26Z</time>
      </trkpt>
      <trkpt lat="42.88758" lon="-0.12958">
        <ele>1252.2543945312</ele>
        <time>2015-12-30T10:36:41Z</time>
      </trkpt>
      <trkpt lat="42.88752" lon="-0.12975">
        <ele>1253.2158203125</ele>
        <time>2015-12-30T10:36:57Z</time>
      </trkpt>
      <trkpt lat="42.88748" lon="-0.12985">
        <ele>1252.7351074219</ele>
        <time>2015-12-30T10:37:04Z</time>
      </trkpt>
      <trkpt lat="42.88746" lon="-0.12998">
        <ele>1253.2158203125</ele>
        <time>2015-12-30T10:37:13Z</time>
      </trkpt>
      <trkpt lat="42.88744" lon="-0.13011">
        <ele>1253.6965332031</ele>
        <time>2015-12-30T10:37:21Z</time>
      </trkpt>
      <trkpt lat="42.88744" lon="-0.1302">
        <ele>1253.2158203125</ele>
        <time>2015-12-30T10:37:27Z</time>
      </trkpt>
      <trkpt lat="42.88742" lon="-0.13035">
        <ele>1254.6577148438</ele>
        <time>2015-12-30T10:37:36Z</time>
      </trkpt>
      <trkpt lat="42.8874" lon="-0.13055">
        <ele>1254.6577148438</ele>
        <time>2015-12-30T10:37:49Z</time>
      </trkpt>
      <trkpt lat="42.88737" lon="-0.13067">
        <ele>1256.099609375</ele>
        <time>2015-12-30T10:38:04Z</time>
      </trkpt>
      <trkpt lat="42.88738" lon="-0.13065">
        <ele>1256.099609375</ele>
        <time>2015-12-30T10:38:06Z</time>
      </trkpt>
      <trkpt lat="42.88738" lon="-0.13063">
        <ele>1255.619140625</ele>
        <time>2015-12-30T10:38:08Z</time>
      </trkpt>
      <trkpt lat="42.88744" lon="-0.13031">
        <ele>1255.1384277344</ele>
        <time>2015-12-30T10:38:29Z</time>
      </trkpt>
      <trkpt lat="42.88748" lon="-0.13002">
        <ele>1254.1772460938</ele>
        <time>2015-12-30T10:38:48Z</time>
      </trkpt>
      <trkpt lat="42.88755" lon="-0.12974">
        <ele>1253.6965332031</ele>
        <time>2015-12-30T10:39:07Z</time>
      </trkpt>
      <trkpt lat="42.88752" lon="-0.12969">
        <ele>1253.6965332031</ele>
        <time>2015-12-30T10:39:21Z</time>
      </trkpt>
      <trkpt lat="42.88754" lon="-0.12969">
        <ele>1254.1772460938</ele>
        <time>2015-12-30T10:39:31Z</time>
      </trkpt>
      <trkpt lat="42.88759" lon="-0.12955">
        <ele>1254.1772460938</ele>
        <time>2015-12-30T10:39:47Z</time>
      </trkpt>
      <trkpt lat="42.88759" lon="-0.12946">
        <ele>1255.1384277344</ele>
        <time>2015-12-30T10:40:00Z</time>
      </trkpt>
      <trkpt lat="42.88759" lon="-0.12943">
        <ele>1255.1384277344</ele>
        <time>2015-12-30T10:40:03Z</time>
      </trkpt>
      <trkpt lat="42.88761" lon="-0.12926">
        <ele>1257.0610351562</ele>
        <time>2015-12-30T10:40:20Z</time>
      </trkpt>
      <trkpt lat="42.88764" lon="-0.12915">
        <ele>1258.0224609375</ele>
        <time>2015-12-30T10:40:33Z</time>
      </trkpt>
      <trkpt lat="42.88771" lon="-0.12892">
        <ele>1260.42578125</ele>
        <time>2015-12-30T10:40:52Z</time>
      </trkpt>
      <trkpt lat="42.88774" lon="-0.12867">
        <ele>1260.42578125</ele>
        <time>2015-12-30T10:41:11Z</time>
      </trkpt>
      <trkpt lat="42.88775" lon="-0.12866">
        <ele>1259.9448242188</ele>
        <time>2015-12-30T10:41:12Z</time>
      </trkpt>
      <trkpt lat="42.88777" lon="-0.12851">
        <ele>1260.42578125</ele>
        <time>2015-12-30T10:41:28Z</time>
      </trkpt>
      <trkpt lat="42.8878" lon="-0.1284">
        <ele>1261.3872070312</ele>
        <time>2015-12-30T10:41:44Z</time>
      </trkpt>
      <trkpt lat="42.8878" lon="-0.12832">
        <ele>1261.3872070312</ele>
        <time>2015-12-30T10:41:51Z</time>
      </trkpt>
      <trkpt lat="42.88779" lon="-0.12813">
        <ele>1262.8291015625</ele>
        <time>2015-12-30T10:42:10Z</time>
      </trkpt>
      <trkpt lat="42.88775" lon="-0.12798">
        <ele>1264.2709960938</ele>
        <time>2015-12-30T10:42:24Z</time>
      </trkpt>
      <trkpt lat="42.88767" lon="-0.12775">
        <ele>1266.6743164062</ele>
        <time>2015-12-30T10:42:44Z</time>
      </trkpt>
      <trkpt lat="42.88762" lon="-0.12756">
        <ele>1269.5583496094</ele>
        <time>2015-12-30T10:43:01Z</time>
      </trkpt>
      <trkpt lat="42.88758" lon="-0.1275">
        <ele>1271.9614257812</ele>
        <time>2015-12-30T10:43:10Z</time>
      </trkpt>
      <trkpt lat="42.88757" lon="-0.12758">
        <ele>1273.4035644531</ele>
        <time>2015-12-30T10:43:23Z</time>
      </trkpt>
      <trkpt lat="42.88757" lon="-0.12772">
        <ele>1271.9614257812</ele>
        <time>2015-12-30T10:43:43Z</time>
      </trkpt>
      <trkpt lat="42.88757" lon="-0.12777">
        <ele>1272.4421386719</ele>
        <time>2015-12-30T10:43:59Z</time>
      </trkpt>
      <trkpt lat="42.88756" lon="-0.12807">
        <ele>1272.9228515625</ele>
        <time>2015-12-30T10:44:21Z</time>
      </trkpt>
      <trkpt lat="42.88753" lon="-0.12832">
        <ele>1273.8840332031</ele>
        <time>2015-12-30T10:44:40Z</time>
      </trkpt>
      <trkpt lat="42.88749" lon="-0.12861">
        <ele>1274.8454589844</ele>
        <time>2015-12-30T10:45:00Z</time>
      </trkpt>
      <trkpt lat="42.88744" lon="-0.12886">
        <ele>1276.2875976562</ele>
        <time>2015-12-30T10:45:17Z</time>
      </trkpt>
      <trkpt lat="42.88741" lon="-0.12895">
        <ele>1276.2875976562</ele>
        <time>2015-12-30T10:45:24Z</time>
      </trkpt>
      <trkpt lat="42.8874" lon="-0.12905">
        <ele>1277.2490234375</ele>
        <time>2015-12-30T10:45:31Z</time>
      </trkpt>
      <trkpt lat="42.88734" lon="-0.12932">
        <ele>1278.6909179688</ele>
        <time>2015-12-30T10:45:51Z</time>
      </trkpt>
      <trkpt lat="42.88726" lon="-0.12961">
        <ele>1280.1328125</ele>
        <time>2015-12-30T10:46:12Z</time>
      </trkpt>
      <trkpt lat="42.88715" lon="-0.12992">
        <ele>1281.5747070312</ele>
        <time>2015-12-30T10:46:35Z</time>
      </trkpt>
      <trkpt lat="42.88702" lon="-0.13027">
        <ele>1283.4973144531</ele>
        <time>2015-12-30T10:47:00Z</time>
      </trkpt>
      <trkpt lat="42.8869" lon="-0.1306">
        <ele>1284.939453125</ele>
        <time>2015-12-30T10:47:24Z</time>
      </trkpt>
      <trkpt lat="42.88676" lon="-0.13088">
        <ele>1284.939453125</ele>
        <time>2015-12-30T10:47:46Z</time>
      </trkpt>
      <trkpt lat="42.88662" lon="-0.13119">
        <ele>1284.4587402344</ele>
        <time>2015-12-30T10:48:09Z</time>
      </trkpt>
      <trkpt lat="42.88652" lon="-0.13145">
        <ele>1284.4587402344</ele>
        <time>2015-12-30T10:48:28Z</time>
      </trkpt>
      <trkpt lat="42.88644" lon="-0.13167">
        <ele>1284.4587402344</ele>
        <time>2015-12-30T10:48:45Z</time>
      </trkpt>
      <trkpt lat="42.88639" lon="-0.13195">
        <ele>1284.939453125</ele>
        <time>2015-12-30T10:49:05Z</time>
      </trkpt>
      <trkpt lat="42.88636" lon="-0.13226">
        <ele>1283.9780273438</ele>
        <time>2015-12-30T10:49:26Z</time>
      </trkpt>
      <trkpt lat="42.88628" lon="-0.13262">
        <ele>1283.9780273438</ele>
        <time>2015-12-30T10:49:50Z</time>
      </trkpt>
      <trkpt lat="42.88621" lon="-0.13287">
        <ele>1283.9780273438</ele>
        <time>2015-12-30T10:50:07Z</time>
      </trkpt>
      <trkpt lat="42.8861" lon="-0.13319">
        <ele>1283.0166015625</ele>
        <time>2015-12-30T10:50:29Z</time>
      </trkpt>
      <trkpt lat="42.88602" lon="-0.13352">
        <ele>1283.4973144531</ele>
        <time>2015-12-30T10:50:52Z</time>
      </trkpt>
      <trkpt lat="42.88597" lon="-0.1338">
        <ele>1283.9780273438</ele>
        <time>2015-12-30T10:51:12Z</time>
      </trkpt>
      <trkpt lat="42.88596" lon="-0.13383">
        <ele>1283.4973144531</ele>
        <time>2015-12-30T10:51:14Z</time>
      </trkpt>
      <trkpt lat="42.88594" lon="-0.13413">
        <ele>1283.4973144531</ele>
        <time>2015-12-30T10:51:34Z</time>
      </trkpt>
      <trkpt lat="42.88589" lon="-0.13446">
        <ele>1286.3813476562</ele>
        <time>2015-12-30T10:51:56Z</time>
      </trkpt>
      <trkpt lat="42.88589" lon="-0.13446">
        <ele>1286.3813476562</ele>
        <time>2015-12-30T10:51:57Z</time>
      </trkpt>
      <trkpt lat="42.88589" lon="-0.13451">
        <ele>1286.3813476562</ele>
        <time>2015-12-30T10:52:10Z</time>
      </trkpt>
      <trkpt lat="42.88588" lon="-0.13467">
        <ele>1285.9006347656</ele>
        <time>2015-12-30T10:52:35Z</time>
      </trkpt>
      <trkpt lat="42.88586" lon="-0.13471">
        <ele>1286.8618164062</ele>
        <time>2015-12-30T10:52:50Z</time>
      </trkpt>
      <trkpt lat="42.88584" lon="-0.13488">
        <ele>1288.7846679688</ele>
        <time>2015-12-30T10:53:08Z</time>
      </trkpt>
      <trkpt lat="42.88582" lon="-0.13494">
        <ele>1289.2651367188</ele>
        <time>2015-12-30T10:53:28Z</time>
      </trkpt>
      <trkpt lat="42.88579" lon="-0.13508">
        <ele>1290.70703125</ele>
        <time>2015-12-30T10:53:45Z</time>
      </trkpt>
      <trkpt lat="42.88574" lon="-0.13526">
        <ele>1291.6684570312</ele>
        <time>2015-12-30T10:54:02Z</time>
      </trkpt>
      <trkpt lat="42.88561" lon="-0.13545">
        <ele>1292.6301269531</ele>
        <time>2015-12-30T10:54:22Z</time>
      </trkpt>
      <trkpt lat="42.88553" lon="-0.13567">
        <ele>1294.0720214844</ele>
        <time>2015-12-30T10:54:39Z</time>
      </trkpt>
      <trkpt lat="42.8854" lon="-0.13593">
        <ele>1295.033203125</ele>
        <time>2015-12-30T10:55:01Z</time>
      </trkpt>
      <trkpt lat="42.88527" lon="-0.13615">
        <ele>1296.4753417969</ele>
        <time>2015-12-30T10:55:20Z</time>
      </trkpt>
      <trkpt lat="42.88515" lon="-0.13639">
        <ele>1298.8784179688</ele>
        <time>2015-12-30T10:55:43Z</time>
      </trkpt>
      <trkpt lat="42.88518" lon="-0.13636">
        <ele>1298.8784179688</ele>
        <time>2015-12-30T10:56:18Z</time>
      </trkpt>
      <trkpt lat="42.8852" lon="-0.1364">
        <ele>1298.8784179688</ele>
        <time>2015-12-30T10:57:03Z</time>
      </trkpt>
      <trkpt lat="42.88519" lon="-0.13641">
        <ele>1299.3591308594</ele>
        <time>2015-12-30T10:57:32Z</time>
      </trkpt>
      <trkpt lat="42.88509" lon="-0.13654">
        <ele>1300.3205566406</ele>
        <time>2015-12-30T10:57:51Z</time>
      </trkpt>
      <trkpt lat="42.88497" lon="-0.13676">
        <ele>1302.2429199219</ele>
        <time>2015-12-30T10:58:12Z</time>
      </trkpt>
      <trkpt lat="42.88488" lon="-0.13697">
        <ele>1302.7236328125</ele>
        <time>2015-12-30T10:58:29Z</time>
      </trkpt>
      <trkpt lat="42.88476" lon="-0.13724">
        <ele>1303.6850585938</ele>
        <time>2015-12-30T10:58:51Z</time>
      </trkpt>
      <trkpt lat="42.88465" lon="-0.13751">
        <ele>1307.5302734375</ele>
        <time>2015-12-30T10:59:13Z</time>
      </trkpt>
      <trkpt lat="42.88457" lon="-0.13773">
        <ele>1308.4916992188</ele>
        <time>2015-12-30T10:59:34Z</time>
      </trkpt>
      <trkpt lat="42.88455" lon="-0.13777">
        <ele>1308.9724121094</ele>
        <time>2015-12-30T10:59:38Z</time>
      </trkpt>
      <trkpt lat="42.88443" lon="-0.13798">
        <ele>1310.4143066406</ele>
        <time>2015-12-30T10:59:58Z</time>
      </trkpt>
      <trkpt lat="42.88423" lon="-0.13814">
        <ele>1312.8176269531</ele>
        <time>2015-12-30T11:00:20Z</time>
      </trkpt>
      <trkpt lat="42.88405" lon="-0.13826">
        <ele>1314.2595214844</ele>
        <time>2015-12-30T11:00:39Z</time>
      </trkpt>
      <trkpt lat="42.8839" lon="-0.13843">
        <ele>1316.6628417969</ele>
        <time>2015-12-30T11:00:57Z</time>
      </trkpt>
      <trkpt lat="42.88375" lon="-0.13862">
        <ele>1317.1435546875</ele>
        <time>2015-12-30T11:01:16Z</time>
      </trkpt>
      <trkpt lat="42.88363" lon="-0.13881">
        <ele>1320.5080566406</ele>
        <time>2015-12-30T11:01:33Z</time>
      </trkpt>
      <trkpt lat="42.8835" lon="-0.13904">
        <ele>1320.9887695312</ele>
        <time>2015-12-30T11:01:52Z</time>
      </trkpt>
      <trkpt lat="42.88337" lon="-0.13929">
        <ele>1321.9499511719</ele>
        <time>2015-12-30T11:02:14Z</time>
      </trkpt>
      <trkpt lat="42.88321" lon="-0.13951">
        <ele>1325.3146972656</ele>
        <time>2015-12-30T11:02:35Z</time>
      </trkpt>
      <trkpt lat="42.88308" lon="-0.13977">
        <ele>1326.2761230469</ele>
        <time>2015-12-30T11:02:56Z</time>
      </trkpt>
      <trkpt lat="42.88299" lon="-0.14">
        <ele>1327.7180175781</ele>
        <time>2015-12-30T11:03:15Z</time>
      </trkpt>
      <trkpt lat="42.88288" lon="-0.1403">
        <ele>1329.640625</ele>
        <time>2015-12-30T11:03:38Z</time>
      </trkpt>
      <trkpt lat="42.88281" lon="-0.14054">
        <ele>1331.0827636719</ele>
        <time>2015-12-30T11:03:56Z</time>
      </trkpt>
      <trkpt lat="42.88272" lon="-0.14085">
        <ele>1333.9665527344</ele>
        <time>2015-12-30T11:04:19Z</time>
      </trkpt>
      <trkpt lat="42.88263" lon="-0.14113">
        <ele>1334.9279785156</ele>
        <time>2015-12-30T11:04:40Z</time>
      </trkpt>
      <trkpt lat="42.88261" lon="-0.1412">
        <ele>1335.8891601562</ele>
        <time>2015-12-30T11:04:45Z</time>
      </trkpt>
      <trkpt lat="42.88255" lon="-0.14145">
        <ele>1337.8117675781</ele>
        <time>2015-12-30T11:05:04Z</time>
      </trkpt>
      <trkpt lat="42.8825" lon="-0.14169">
        <ele>1339.734375</ele>
        <time>2015-12-30T11:05:23Z</time>
      </trkpt>
      <trkpt lat="42.88249" lon="-0.14189">
        <ele>1339.734375</ele>
        <time>2015-12-30T11:05:41Z</time>
      </trkpt>
      <trkpt lat="42.88252" lon="-0.14195">
        <ele>1340.6958007812</ele>
        <time>2015-12-30T11:05:48Z</time>
      </trkpt>
      <trkpt lat="42.88263" lon="-0.14203">
        <ele>1341.1765136719</ele>
        <time>2015-12-30T11:06:02Z</time>
      </trkpt>
      <trkpt lat="42.88268" lon="-0.14218">
        <ele>1344.541015625</ele>
        <time>2015-12-30T11:06:19Z</time>
      </trkpt>
      <trkpt lat="42.8827" lon="-0.14228">
        <ele>1345.0217285156</ele>
        <time>2015-12-30T11:06:37Z</time>
      </trkpt>
      <trkpt lat="42.88273" lon="-0.14237">
        <ele>1347.9057617188</ele>
        <time>2015-12-30T11:06:49Z</time>
      </trkpt>
      <trkpt lat="42.8828" lon="-0.1425">
        <ele>1348.3862304688</ele>
        <time>2015-12-30T11:07:06Z</time>
      </trkpt>
      <trkpt lat="42.88284" lon="-0.14264">
        <ele>1351.2702636719</ele>
        <time>2015-12-30T11:07:21Z</time>
      </trkpt>
      <trkpt lat="42.8829" lon="-0.14274">
        <ele>1353.1928710938</ele>
        <time>2015-12-30T11:07:36Z</time>
      </trkpt>
      <trkpt lat="42.88297" lon="-0.14284">
        <ele>1356.0769042969</ele>
        <time>2015-12-30T11:07:52Z</time>
      </trkpt>
      <trkpt lat="42.883" lon="-0.14284">
        <ele>1357.5190429688</ele>
        <time>2015-12-30T11:08:13Z</time>
      </trkpt>
      <trkpt lat="42.88302" lon="-0.14282">
        <ele>1357.5190429688</ele>
        <time>2015-12-30T11:08:26Z</time>
      </trkpt>
      <trkpt lat="42.88303" lon="-0.14283">
        <ele>1357.0383300781</ele>
        <time>2015-12-30T11:08:47Z</time>
      </trkpt>
      <trkpt lat="42.88301" lon="-0.14297">
        <ele>1356.0769042969</ele>
        <time>2015-12-30T11:09:10Z</time>
      </trkpt>
      <trkpt lat="42.88298" lon="-0.14307">
        <ele>1356.5576171875</ele>
        <time>2015-12-30T11:09:18Z</time>
      </trkpt>
      <trkpt lat="42.88294" lon="-0.14329">
        <ele>1357.9997558594</ele>
        <time>2015-12-30T11:09:37Z</time>
      </trkpt>
      <trkpt lat="42.88297" lon="-0.14336">
        <ele>1359.4416503906</ele>
        <time>2015-12-30T11:09:52Z</time>
      </trkpt>
      <trkpt lat="42.88292" lon="-0.14341">
        <ele>1362.8061523438</ele>
        <time>2015-12-30T11:10:06Z</time>
      </trkpt>
      <trkpt lat="42.88296" lon="-0.1436">
        <ele>1365.6901855469</ele>
        <time>2015-12-30T11:10:24Z</time>
      </trkpt>
      <trkpt lat="42.88298" lon="-0.14369">
        <ele>1365.6901855469</ele>
        <time>2015-12-30T11:10:32Z</time>
      </trkpt>
      <trkpt lat="42.88304" lon="-0.14376">
        <ele>1365.6901855469</ele>
        <time>2015-12-30T11:10:49Z</time>
      </trkpt>
      <trkpt lat="42.88311" lon="-0.14374">
        <ele>1366.6513671875</ele>
        <time>2015-12-30T11:11:03Z</time>
      </trkpt>
      <trkpt lat="42.88313" lon="-0.14374">
        <ele>1365.6901855469</ele>
        <time>2015-12-30T11:11:18Z</time>
      </trkpt>
      <trkpt lat="42.88312" lon="-0.14373">
        <ele>1369.0546875</ele>
        <time>2015-12-30T11:11:33Z</time>
      </trkpt>
      <trkpt lat="42.88312" lon="-0.14373">
        <ele>1366.1706542969</ele>
        <time>2015-12-30T11:11:36Z</time>
      </trkpt>
      <trkpt lat="42.88313" lon="-0.14372">
        <ele>1367.6125488281</ele>
        <time>2015-12-30T11:15:08Z</time>
      </trkpt>
      <trkpt lat="42.88311" lon="-0.14373">
        <ele>1369.0546875</ele>
        <time>2015-12-30T11:21:57Z</time>
      </trkpt>
      <trkpt lat="42.88313" lon="-0.14373">
        <ele>1370.4965820312</ele>
        <time>2015-12-30T11:27:37Z</time>
      </trkpt>
      <trkpt lat="42.88312" lon="-0.14373">
        <ele>1373.380859375</ele>
        <time>2015-12-30T11:49:01Z</time>
      </trkpt>
      <trkpt lat="42.88311" lon="-0.14373">
        <ele>1370.4965820312</ele>
        <time>2015-12-30T11:50:37Z</time>
      </trkpt>
      <trkpt lat="42.88312" lon="-0.14374">
        <ele>1370.9772949219</ele>
        <time>2015-12-30T11:55:33Z</time>
      </trkpt>
      <trkpt lat="42.88315" lon="-0.14372">
        <ele>1371.9384765625</ele>
        <time>2015-12-30T12:00:57Z</time>
      </trkpt>
      <trkpt lat="42.88317" lon="-0.14373">
        <ele>1371.9384765625</ele>
        <time>2015-12-30T12:01:43Z</time>
      </trkpt>
      <trkpt lat="42.88316" lon="-0.14374">
        <ele>1373.380859375</ele>
        <time>2015-12-30T12:02:18Z</time>
      </trkpt>
      <trkpt lat="42.88315" lon="-0.14373">
        <ele>1372.9001464844</ele>
        <time>2015-12-30T12:02:42Z</time>
      </trkpt>
      <trkpt lat="42.88312" lon="-0.1437">
        <ele>1371.9384765625</ele>
        <time>2015-12-30T12:02:52Z</time>
      </trkpt>
      <trkpt lat="42.88312" lon="-0.14367">
        <ele>1370.4965820312</ele>
        <time>2015-12-30T12:02:54Z</time>
      </trkpt>
      <trkpt lat="42.88315" lon="-0.14353">
        <ele>1369.5354003906</ele>
        <time>2015-12-30T12:03:04Z</time>
      </trkpt>
      <trkpt lat="42.88309" lon="-0.14332">
        <ele>1366.6513671875</ele>
        <time>2015-12-30T12:03:19Z</time>
      </trkpt>
      <trkpt lat="42.88302" lon="-0.14317">
        <ele>1363.7673339844</ele>
        <time>2015-12-30T12:03:31Z</time>
      </trkpt>
      <trkpt lat="42.88302" lon="-0.14301">
        <ele>1363.2868652344</ele>
        <time>2015-12-30T12:03:41Z</time>
      </trkpt>
      <trkpt lat="42.88303" lon="-0.14295">
        <ele>1363.7673339844</ele>
        <time>2015-12-30T12:03:45Z</time>
      </trkpt>
      <trkpt lat="42.88298" lon="-0.14279">
        <ele>1361.8449707031</ele>
        <time>2015-12-30T12:04:00Z</time>
      </trkpt>
      <trkpt lat="42.88293" lon="-0.14272">
        <ele>1360.4028320312</ele>
        <time>2015-12-30T12:04:09Z</time>
      </trkpt>
      <trkpt lat="42.88291" lon="-0.14271">
        <ele>1359.9221191406</ele>
        <time>2015-12-30T12:04:22Z</time>
      </trkpt>
      <trkpt lat="42.88289" lon="-0.14264">
        <ele>1357.5190429688</ele>
        <time>2015-12-30T12:04:34Z</time>
      </trkpt>
      <trkpt lat="42.88287" lon="-0.14253">
        <ele>1355.1154785156</ele>
        <time>2015-12-30T12:04:43Z</time>
      </trkpt>
      <trkpt lat="42.88283" lon="-0.14239">
        <ele>1352.2314453125</ele>
        <time>2015-12-30T12:04:56Z</time>
      </trkpt>
      <trkpt lat="42.88285" lon="-0.14231">
        <ele>1350.7895507812</ele>
        <time>2015-12-30T12:05:05Z</time>
      </trkpt>
      <trkpt lat="42.88272" lon="-0.14203">
        <ele>1348.8669433594</ele>
        <time>2015-12-30T12:05:28Z</time>
      </trkpt>
      <trkpt lat="42.88254" lon="-0.14188">
        <ele>1348.3862304688</ele>
        <time>2015-12-30T12:05:46Z</time>
      </trkpt>
      <trkpt lat="42.88258" lon="-0.14157">
        <ele>1345.9831542969</ele>
        <time>2015-12-30T12:06:08Z</time>
      </trkpt>
      <trkpt lat="42.88264" lon="-0.14131">
        <ele>1344.541015625</ele>
        <time>2015-12-30T12:06:27Z</time>
      </trkpt>
      <trkpt lat="42.88271" lon="-0.14112">
        <ele>1341.6572265625</ele>
        <time>2015-12-30T12:06:41Z</time>
      </trkpt>
      <trkpt lat="42.88281" lon="-0.14083">
        <ele>1340.2153320312</ele>
        <time>2015-12-30T12:07:02Z</time>
      </trkpt>
      <trkpt lat="42.88288" lon="-0.14068">
        <ele>1339.2536621094</ele>
        <time>2015-12-30T12:07:14Z</time>
      </trkpt>
      <trkpt lat="42.88295" lon="-0.14042">
        <ele>1337.8117675781</ele>
        <time>2015-12-30T12:07:32Z</time>
      </trkpt>
      <trkpt lat="42.88302" lon="-0.14017">
        <ele>1337.3310546875</ele>
        <time>2015-12-30T12:07:50Z</time>
      </trkpt>
      <trkpt lat="42.88304" lon="-0.14008">
        <ele>1335.8891601562</ele>
        <time>2015-12-30T12:07:56Z</time>
      </trkpt>
      <trkpt lat="42.88316" lon="-0.13983">
        <ele>1334.447265625</ele>
        <time>2015-12-30T12:08:15Z</time>
      </trkpt>
      <trkpt lat="42.88324" lon="-0.13955">
        <ele>1333.0051269531</ele>
        <time>2015-12-30T12:08:34Z</time>
      </trkpt>
      <trkpt lat="42.88341" lon="-0.13926">
        <ele>1330.6020507812</ele>
        <time>2015-12-30T12:08:57Z</time>
      </trkpt>
      <trkpt lat="42.88356" lon="-0.13901">
        <ele>1328.6794433594</ele>
        <time>2015-12-30T12:09:17Z</time>
      </trkpt>
      <trkpt lat="42.88372" lon="-0.13875">
        <ele>1326.2761230469</ele>
        <time>2015-12-30T12:09:37Z</time>
      </trkpt>
      <trkpt lat="42.88388" lon="-0.13852">
        <ele>1324.353515625</ele>
        <time>2015-12-30T12:09:56Z</time>
      </trkpt>
      <trkpt lat="42.88409" lon="-0.1383">
        <ele>1322.4306640625</ele>
        <time>2015-12-30T12:10:18Z</time>
      </trkpt>
      <trkpt lat="42.88428" lon="-0.13818">
        <ele>1321.4692382812</ele>
        <time>2015-12-30T12:10:35Z</time>
      </trkpt>
      <trkpt lat="42.88449" lon="-0.13796">
        <ele>1318.5854492188</ele>
        <time>2015-12-30T12:10:56Z</time>
      </trkpt>
      <trkpt lat="42.88466" lon="-0.13763">
        <ele>1316.6628417969</ele>
        <time>2015-12-30T12:11:19Z</time>
      </trkpt>
      <trkpt lat="42.88482" lon="-0.13727">
        <ele>1313.7788085938</ele>
        <time>2015-12-30T12:11:44Z</time>
      </trkpt>
      <trkpt lat="42.88495" lon="-0.13696">
        <ele>1311.8564453125</ele>
        <time>2015-12-30T12:12:05Z</time>
      </trkpt>
      <trkpt lat="42.88504" lon="-0.13676">
        <ele>1308.4916992188</ele>
        <time>2015-12-30T12:12:19Z</time>
      </trkpt>
      <trkpt lat="42.88519" lon="-0.13646">
        <ele>1307.5302734375</ele>
        <time>2015-12-30T12:12:40Z</time>
      </trkpt>
      <trkpt lat="42.88536" lon="-0.13614">
        <ele>1306.5688476562</ele>
        <time>2015-12-30T12:13:03Z</time>
      </trkpt>
      <trkpt lat="42.88553" lon="-0.13581">
        <ele>1304.1657714844</ele>
        <time>2015-12-30T12:13:27Z</time>
      </trkpt>
      <trkpt lat="42.8857" lon="-0.13543">
        <ele>1301.2817382812</ele>
        <time>2015-12-30T12:13:53Z</time>
      </trkpt>
      <trkpt lat="42.88581" lon="-0.13508">
        <ele>1300.8010253906</ele>
        <time>2015-12-30T12:14:15Z</time>
      </trkpt>
      <trkpt lat="42.88588" lon="-0.13471">
        <ele>1298.3977050781</ele>
        <time>2015-12-30T12:14:36Z</time>
      </trkpt>
      <trkpt lat="42.8859" lon="-0.13442">
        <ele>1295.9946289062</ele>
        <time>2015-12-30T12:14:53Z</time>
      </trkpt>
      <trkpt lat="42.88595" lon="-0.13409">
        <ele>1295.033203125</ele>
        <time>2015-12-30T12:15:13Z</time>
      </trkpt>
      <trkpt lat="42.88599" lon="-0.13379">
        <ele>1293.5913085938</ele>
        <time>2015-12-30T12:15:31Z</time>
      </trkpt>
      <trkpt lat="42.88607" lon="-0.13352">
        <ele>1293.5913085938</ele>
        <time>2015-12-30T12:15:51Z</time>
      </trkpt>
      <trkpt lat="42.88604" lon="-0.13354">
        <ele>1292.1494140625</ele>
        <time>2015-12-30T12:16:02Z</time>
      </trkpt>
      <trkpt lat="42.88604" lon="-0.13357">
        <ele>1293.5913085938</ele>
        <time>2015-12-30T12:16:04Z</time>
      </trkpt>
      <trkpt lat="42.88608" lon="-0.13359">
        <ele>1293.5913085938</ele>
        <time>2015-12-30T12:16:13Z</time>
      </trkpt>
      <trkpt lat="42.88621" lon="-0.13334">
        <ele>1290.2265625</ele>
        <time>2015-12-30T12:16:30Z</time>
      </trkpt>
      <trkpt lat="42.88631" lon="-0.13311">
        <ele>1287.8232421875</ele>
        <time>2015-12-30T12:16:45Z</time>
      </trkpt>
      <trkpt lat="42.88638" lon="-0.13296">
        <ele>1286.3813476562</ele>
        <time>2015-12-30T12:16:55Z</time>
      </trkpt>
      <trkpt lat="42.88646" lon="-0.13272">
        <ele>1283.9780273438</ele>
        <time>2015-12-30T12:17:10Z</time>
      </trkpt>
      <trkpt lat="42.88658" lon="-0.13235">
        <ele>1281.5747070312</ele>
        <time>2015-12-30T12:17:30Z</time>
      </trkpt>
      <trkpt lat="42.88664" lon="-0.1322">
        <ele>1280.1328125</ele>
        <time>2015-12-30T12:17:38Z</time>
      </trkpt>
      <trkpt lat="42.88679" lon="-0.13183">
        <ele>1276.7683105469</ele>
        <time>2015-12-30T12:17:57Z</time>
      </trkpt>
      <trkpt lat="42.88688" lon="-0.13151">
        <ele>1277.2490234375</ele>
        <time>2015-12-30T12:18:16Z</time>
      </trkpt>
      <trkpt lat="42.88691" lon="-0.13139">
        <ele>1277.2490234375</ele>
        <time>2015-12-30T12:18:23Z</time>
      </trkpt>
      <trkpt lat="42.88703" lon="-0.1312">
        <ele>1275.3259277344</ele>
        <time>2015-12-30T12:18:40Z</time>
      </trkpt>
      <trkpt lat="42.88722" lon="-0.13097">
        <ele>1271.9614257812</ele>
        <time>2015-12-30T12:19:00Z</time>
      </trkpt>
      <trkpt lat="42.8874" lon="-0.13065">
        <ele>1269.5583496094</ele>
        <time>2015-12-30T12:19:22Z</time>
      </trkpt>
      <trkpt lat="42.88745" lon="-0.13032">
        <ele>1268.5969238281</ele>
        <time>2015-12-30T12:19:39Z</time>
      </trkpt>
      <trkpt lat="42.88747" lon="-0.13021">
        <ele>1267.6354980469</ele>
        <time>2015-12-30T12:19:45Z</time>
      </trkpt>
      <trkpt lat="42.88755" lon="-0.12984">
        <ele>1266.6743164062</ele>
        <time>2015-12-30T12:20:06Z</time>
      </trkpt>
      <trkpt lat="42.8876" lon="-0.12961">
        <ele>1266.1936035156</ele>
        <time>2015-12-30T12:20:21Z</time>
      </trkpt>
      <trkpt lat="42.88771" lon="-0.12934">
        <ele>1263.3098144531</ele>
        <time>2015-12-30T12:20:39Z</time>
      </trkpt>
      <trkpt lat="42.88785" lon="-0.12914">
        <ele>1259.9448242188</ele>
        <time>2015-12-30T12:20:56Z</time>
      </trkpt>
      <trkpt lat="42.88803" lon="-0.12886">
        <ele>1257.0610351562</ele>
        <time>2015-12-30T12:21:14Z</time>
      </trkpt>
      <trkpt lat="42.88817" lon="-0.1286">
        <ele>1256.099609375</ele>
        <time>2015-12-30T12:21:34Z</time>
      </trkpt>
      <trkpt lat="42.88822" lon="-0.12853">
        <ele>1255.619140625</ele>
        <time>2015-12-30T12:21:54Z</time>
      </trkpt>
      <trkpt lat="42.8883" lon="-0.12842">
        <ele>1252.7351074219</ele>
        <time>2015-12-30T12:22:08Z</time>
      </trkpt>
      <trkpt lat="42.88835" lon="-0.12827">
        <ele>1250.8125</ele>
        <time>2015-12-30T12:22:25Z</time>
      </trkpt>
      <trkpt lat="42.88829" lon="-0.128">
        <ele>1247.9287109375</ele>
        <time>2015-12-30T12:22:45Z</time>
      </trkpt>
      <trkpt lat="42.88828" lon="-0.12794">
        <ele>1247.4479980469</ele>
        <time>2015-12-30T12:22:49Z</time>
      </trkpt>
      <trkpt lat="42.88824" lon="-0.12768">
        <ele>1244.5639648438</ele>
        <time>2015-12-30T12:23:08Z</time>
      </trkpt>
      <trkpt lat="42.88824" lon="-0.12761">
        <ele>1244.5639648438</ele>
        <time>2015-12-30T12:23:13Z</time>
      </trkpt>
      <trkpt lat="42.88825" lon="-0.12752">
        <ele>1244.5639648438</ele>
        <time>2015-12-30T12:23:19Z</time>
      </trkpt>
      <trkpt lat="42.88832" lon="-0.12732">
        <ele>1241.6799316406</ele>
        <time>2015-12-30T12:23:35Z</time>
      </trkpt>
      <trkpt lat="42.88833" lon="-0.12743">
        <ele>1238.7961425781</ele>
        <time>2015-12-30T12:23:44Z</time>
      </trkpt>
      <trkpt lat="42.88831" lon="-0.12755">
        <ele>1237.3540039062</ele>
        <time>2015-12-30T12:23:54Z</time>
      </trkpt>
      <trkpt lat="42.88837" lon="-0.12755">
        <ele>1234.9509277344</ele>
        <time>2015-12-30T12:24:04Z</time>
      </trkpt>
      <trkpt lat="42.88841" lon="-0.12747">
        <ele>1233.0280761719</ele>
        <time>2015-12-30T12:24:12Z</time>
      </trkpt>
      <trkpt lat="42.88846" lon="-0.12738">
        <ele>1230.625</ele>
        <time>2015-12-30T12:24:24Z</time>
      </trkpt>
      <trkpt lat="42.88847" lon="-0.12727">
        <ele>1229.1828613281</ele>
        <time>2015-12-30T12:24:34Z</time>
      </trkpt>
      <trkpt lat="42.88853" lon="-0.12718">
        <ele>1226.298828125</ele>
        <time>2015-12-30T12:24:46Z</time>
      </trkpt>
      <trkpt lat="42.8886" lon="-0.1271">
        <ele>1224.3762207031</ele>
        <time>2015-12-30T12:24:56Z</time>
      </trkpt>
      <trkpt lat="42.88863" lon="-0.12707">
        <ele>1222.9343261719</ele>
        <time>2015-12-30T12:25:00Z</time>
      </trkpt>
      <trkpt lat="42.88869" lon="-0.12699">
        <ele>1221.01171875</ele>
        <time>2015-12-30T12:25:11Z</time>
      </trkpt>
      <trkpt lat="42.88872" lon="-0.12688">
        <ele>1219.5698242188</ele>
        <time>2015-12-30T12:25:22Z</time>
      </trkpt>
      <trkpt lat="42.88887" lon="-0.12684">
        <ele>1215.724609375</ele>
        <time>2015-12-30T12:25:35Z</time>
      </trkpt>
      <trkpt lat="42.88896" lon="-0.12689">
        <ele>1214.7631835938</ele>
        <time>2015-12-30T12:25:45Z</time>
      </trkpt>
      <trkpt lat="42.88896" lon="-0.1269">
        <ele>1214.7631835938</ele>
        <time>2015-12-30T12:25:46Z</time>
      </trkpt>
      <trkpt lat="42.889" lon="-0.12702">
        <ele>1213.3212890625</ele>
        <time>2015-12-30T12:25:57Z</time>
      </trkpt>
      <trkpt lat="42.88894" lon="-0.1269">
        <ele>1210.9177246094</ele>
        <time>2015-12-30T12:26:08Z</time>
      </trkpt>
      <trkpt lat="42.88891" lon="-0.12676">
        <ele>1209.4758300781</ele>
        <time>2015-12-30T12:26:20Z</time>
      </trkpt>
      <trkpt lat="42.88891" lon="-0.12666">
        <ele>1208.5144042969</ele>
        <time>2015-12-30T12:26:29Z</time>
      </trkpt>
      <trkpt lat="42.88893" lon="-0.12654">
        <ele>1207.0725097656</ele>
        <time>2015-12-30T12:26:39Z</time>
      </trkpt>
      <trkpt lat="42.889" lon="-0.12635">
        <ele>1203.7080078125</ele>
        <time>2015-12-30T12:26:55Z</time>
      </trkpt>
      <trkpt lat="42.88907" lon="-0.12627">
        <ele>1200.8239746094</ele>
        <time>2015-12-30T12:27:04Z</time>
      </trkpt>
      <trkpt lat="42.88913" lon="-0.12632">
        <ele>1199.8627929688</ele>
        <time>2015-12-30T12:27:11Z</time>
      </trkpt>
      <trkpt lat="42.88922" lon="-0.12639">
        <ele>1198.9013671875</ele>
        <time>2015-12-30T12:27:16Z</time>
      </trkpt>
      <trkpt lat="42.88931" lon="-0.12654">
        <ele>1196.9787597656</ele>
        <time>2015-12-30T12:27:30Z</time>
      </trkpt>
      <trkpt lat="42.8893" lon="-0.12654">
        <ele>1195.5366210938</ele>
        <time>2015-12-30T12:27:33Z</time>
      </trkpt>
      <trkpt lat="42.88926" lon="-0.12643">
        <ele>1192.6528320312</ele>
        <time>2015-12-30T12:27:53Z</time>
      </trkpt>
      <trkpt lat="42.88928" lon="-0.12642">
        <ele>1191.69140625</ele>
        <time>2015-12-30T12:27:57Z</time>
      </trkpt>
      <trkpt lat="42.88937" lon="-0.12644">
        <ele>1190.7299804688</ele>
        <time>2015-12-30T12:28:06Z</time>
      </trkpt>
      <trkpt lat="42.88938" lon="-0.12646">
        <ele>1190.2495117188</ele>
        <time>2015-12-30T12:28:08Z</time>
      </trkpt>
      <trkpt lat="42.88942" lon="-0.12651">
        <ele>1188.3269042969</ele>
        <time>2015-12-30T12:28:20Z</time>
      </trkpt>
      <trkpt lat="42.88936" lon="-0.1263">
        <ele>1184.9624023438</ele>
        <time>2015-12-30T12:28:37Z</time>
      </trkpt>
      <trkpt lat="42.88939" lon="-0.12617">
        <ele>1182.5590820312</ele>
        <time>2015-12-30T12:28:49Z</time>
      </trkpt>
      <trkpt lat="42.8895" lon="-0.12608">
        <ele>1181.59765625</ele>
        <time>2015-12-30T12:29:01Z</time>
      </trkpt>
      <trkpt lat="42.88954" lon="-0.126">
        <ele>1180.1557617188</ele>
        <time>2015-12-30T12:29:11Z</time>
      </trkpt>
      <trkpt lat="42.88957" lon="-0.12587">
        <ele>1177.2717285156</ele>
        <time>2015-12-30T12:29:23Z</time>
      </trkpt>
      <trkpt lat="42.88959" lon="-0.12573">
        <ele>1174.8684082031</ele>
        <time>2015-12-30T12:29:37Z</time>
      </trkpt>
      <trkpt lat="42.88961" lon="-0.12555">
        <ele>1171.5036621094</ele>
        <time>2015-12-30T12:29:51Z</time>
      </trkpt>
      <trkpt lat="42.8896" lon="-0.12539">
        <ele>1170.0617675781</ele>
        <time>2015-12-30T12:30:03Z</time>
      </trkpt>
      <trkpt lat="42.88963" lon="-0.12533">
        <ele>1168.6198730469</ele>
        <time>2015-12-30T12:30:11Z</time>
      </trkpt>
      <trkpt lat="42.88966" lon="-0.1254">
        <ele>1166.2165527344</ele>
        <time>2015-12-30T12:30:18Z</time>
      </trkpt>
      <trkpt lat="42.88968" lon="-0.12547">
        <ele>1165.2553710938</ele>
        <time>2015-12-30T12:30:25Z</time>
      </trkpt>
      <trkpt lat="42.88972" lon="-0.12562">
        <ele>1163.3325195312</ele>
        <time>2015-12-30T12:30:38Z</time>
      </trkpt>
      <trkpt lat="42.8898" lon="-0.12569">
        <ele>1161.890625</ele>
        <time>2015-12-30T12:30:46Z</time>
      </trkpt>
      <trkpt lat="42.88982" lon="-0.12569">
        <ele>1160.9291992188</ele>
        <time>2015-12-30T12:30:48Z</time>
      </trkpt>
      <trkpt lat="42.88982" lon="-0.12563">
        <ele>1160.4484863281</ele>
        <time>2015-12-30T12:30:54Z</time>
      </trkpt>
      <trkpt lat="42.88988" lon="-0.12555">
        <ele>1158.0454101562</ele>
        <time>2015-12-30T12:31:08Z</time>
      </trkpt>
      <trkpt lat="42.88994" lon="-0.12564">
        <ele>1154.6806640625</ele>
        <time>2015-12-30T12:31:29Z</time>
      </trkpt>
      <trkpt lat="42.88998" lon="-0.12558">
        <ele>1152.27734375</ele>
        <time>2015-12-30T12:31:39Z</time>
      </trkpt>
      <trkpt lat="42.88996" lon="-0.12543">
        <ele>1151.3161621094</ele>
        <time>2015-12-30T12:31:51Z</time>
      </trkpt>
      <trkpt lat="42.88995" lon="-0.12531">
        <ele>1148.4321289062</ele>
        <time>2015-12-30T12:32:06Z</time>
      </trkpt>
      <trkpt lat="42.88993" lon="-0.12517">
        <ele>1145.5480957031</ele>
        <time>2015-12-30T12:32:19Z</time>
      </trkpt>
      <trkpt lat="42.88993" lon="-0.12514">
        <ele>1144.5866699219</ele>
        <time>2015-12-30T12:32:21Z</time>
      </trkpt>
      <trkpt lat="42.88991" lon="-0.12504">
        <ele>1144.1062011719</ele>
        <time>2015-12-30T12:32:32Z</time>
      </trkpt>
      <trkpt lat="42.88999" lon="-0.12501">
        <ele>1140.2609863281</ele>
        <time>2015-12-30T12:32:50Z</time>
      </trkpt>
      <trkpt lat="42.89005" lon="-0.12499">
        <ele>1139.2995605469</ele>
        <time>2015-12-30T12:33:01Z</time>
      </trkpt>
      <trkpt lat="42.89001" lon="-0.1249">
        <ele>1137.376953125</ele>
        <time>2015-12-30T12:33:12Z</time>
      </trkpt>
      <trkpt lat="42.89011" lon="-0.1249">
        <ele>1133.5317382812</ele>
        <time>2015-12-30T12:33:23Z</time>
      </trkpt>
      <trkpt lat="42.89019" lon="-0.12494">
        <ele>1133.0510253906</ele>
        <time>2015-12-30T12:33:27Z</time>
      </trkpt>
      <trkpt lat="42.89022" lon="-0.12482">
        <ele>1131.1284179688</ele>
        <time>2015-12-30T12:33:42Z</time>
      </trkpt>
      <trkpt lat="42.89019" lon="-0.12471">
        <ele>1131.1284179688</ele>
        <time>2015-12-30T12:33:52Z</time>
      </trkpt>
      <trkpt lat="42.89015" lon="-0.12461">
        <ele>1131.1284179688</ele>
        <time>2015-12-30T12:34:03Z</time>
      </trkpt>
      <trkpt lat="42.89003" lon="-0.12436">
        <ele>1130.6477050781</ele>
        <time>2015-12-30T12:34:22Z</time>
      </trkpt>
      <trkpt lat="42.89" lon="-0.12429">
        <ele>1130.1669921875</ele>
        <time>2015-12-30T12:34:27Z</time>
      </trkpt>
      <trkpt lat="42.88991" lon="-0.12404">
        <ele>1126.8024902344</ele>
        <time>2015-12-30T12:34:44Z</time>
      </trkpt>
      <trkpt lat="42.8899" lon="-0.12387">
        <ele>1124.3991699219</ele>
        <time>2015-12-30T12:34:55Z</time>
      </trkpt>
      <trkpt lat="42.88996" lon="-0.1235">
        <ele>1121.9958496094</ele>
        <time>2015-12-30T12:35:18Z</time>
      </trkpt>
      <trkpt lat="42.88996" lon="-0.12326">
        <ele>1120.5539550781</ele>
        <time>2015-12-30T12:35:32Z</time>
      </trkpt>
      <trkpt lat="42.88996" lon="-0.12307">
        <ele>1118.6313476562</ele>
        <time>2015-12-30T12:35:44Z</time>
      </trkpt>
      <trkpt lat="42.89" lon="-0.1228">
        <ele>1114.7858886719</ele>
        <time>2015-12-30T12:36:00Z</time>
      </trkpt>
      <trkpt lat="42.89002" lon="-0.12251">
        <ele>1111.9020996094</ele>
        <time>2015-12-30T12:36:19Z</time>
      </trkpt>
      <trkpt lat="42.89001" lon="-0.12218">
        <ele>1108.5373535156</ele>
        <time>2015-12-30T12:36:38Z</time>
      </trkpt>
      <trkpt lat="42.89003" lon="-0.12191">
        <ele>1105.6535644531</ele>
        <time>2015-12-30T12:36:54Z</time>
      </trkpt>
      <trkpt lat="42.89001" lon="-0.12161">
        <ele>1103.2502441406</ele>
        <time>2015-12-30T12:37:13Z</time>
      </trkpt>
      <trkpt lat="42.89001" lon="-0.12156">
        <ele>1101.3276367188</ele>
        <time>2015-12-30T12:37:18Z</time>
      </trkpt>
      <trkpt lat="42.88998" lon="-0.12142">
        <ele>1098.9240722656</ele>
        <time>2015-12-30T12:37:32Z</time>
      </trkpt>
      <trkpt lat="42.88997" lon="-0.12138">
        <ele>1098.9240722656</ele>
        <time>2015-12-30T12:37:36Z</time>
      </trkpt>
      <trkpt lat="42.88997" lon="-0.12134">
        <ele>1097.4821777344</ele>
        <time>2015-12-30T12:37:40Z</time>
      </trkpt>
      <trkpt lat="42.88997" lon="-0.12132">
        <ele>1096.5209960938</ele>
        <time>2015-12-30T12:37:43Z</time>
      </trkpt>
      <trkpt lat="42.88992" lon="-0.12125">
        <ele>1094.5981445312</ele>
        <time>2015-12-30T12:37:54Z</time>
      </trkpt>
      <trkpt lat="42.88998" lon="-0.1212">
        <ele>1091.7143554688</ele>
        <time>2015-12-30T12:38:06Z</time>
      </trkpt>
      <trkpt lat="42.88989" lon="-0.12108">
        <ele>1088.8305664062</ele>
        <time>2015-12-30T12:38:21Z</time>
      </trkpt>
      <trkpt lat="42.88989" lon="-0.12107">
        <ele>1088.8305664062</ele>
        <time>2015-12-30T12:38:22Z</time>
      </trkpt>
      <trkpt lat="42.88981" lon="-0.12098">
        <ele>1085.9465332031</ele>
        <time>2015-12-30T12:38:35Z</time>
      </trkpt>
      <trkpt lat="42.88981" lon="-0.12098">
        <ele>1084.9853515625</ele>
        <time>2015-12-30T12:38:37Z</time>
      </trkpt>
      <trkpt lat="42.88982" lon="-0.12096">
        <ele>1082.5817871094</ele>
        <time>2015-12-30T12:38:50Z</time>
      </trkpt>
      <trkpt lat="42.88987" lon="-0.12091">
        <ele>1080.1784667969</ele>
        <time>2015-12-30T12:39:04Z</time>
      </trkpt>
      <trkpt lat="42.88989" lon="-0.12085">
        <ele>1077.2946777344</ele>
        <time>2015-12-30T12:39:15Z</time>
      </trkpt>
      <trkpt lat="42.88989" lon="-0.12085">
        <ele>1076.8139648438</ele>
        <time>2015-12-30T12:39:16Z</time>
      </trkpt>
      <trkpt lat="42.88994" lon="-0.12081">
        <ele>1072.96875</ele>
        <time>2015-12-30T12:39:30Z</time>
      </trkpt>
      <trkpt lat="42.89" lon="-0.12077">
        <ele>1070.0847167969</ele>
        <time>2015-12-30T12:39:40Z</time>
      </trkpt>
      <trkpt lat="42.89007" lon="-0.12076">
        <ele>1068.6428222656</ele>
        <time>2015-12-30T12:39:49Z</time>
      </trkpt>
      <trkpt lat="42.89012" lon="-0.12073">
        <ele>1065.2780761719</ele>
        <time>2015-12-30T12:39:58Z</time>
      </trkpt>
      <trkpt lat="42.8902" lon="-0.12072">
        <ele>1062.8747558594</ele>
        <time>2015-12-30T12:40:09Z</time>
      </trkpt>
      <trkpt lat="42.8903" lon="-0.12073">
        <ele>1060.9521484375</ele>
        <time>2015-12-30T12:40:22Z</time>
      </trkpt>
      <trkpt lat="42.8904" lon="-0.12076">
        <ele>1058.068359375</ele>
        <time>2015-12-30T12:40:35Z</time>
      </trkpt>
      <trkpt lat="42.8905" lon="-0.1208">
        <ele>1056.6262207031</ele>
        <time>2015-12-30T12:40:51Z</time>
      </trkpt>
      <trkpt lat="42.89057" lon="-0.12075">
        <ele>1054.2231445312</ele>
        <time>2015-12-30T12:41:08Z</time>
      </trkpt>
      <trkpt lat="42.89053" lon="-0.12065">
        <ele>1052.3002929688</ele>
        <time>2015-12-30T12:41:20Z</time>
      </trkpt>
      <trkpt lat="42.8904" lon="-0.12053">
        <ele>1049.4162597656</ele>
        <time>2015-12-30T12:41:38Z</time>
      </trkpt>
      <trkpt lat="42.89044" lon="-0.12054">
        <ele>1047.4936523438</ele>
        <time>2015-12-30T12:41:49Z</time>
      </trkpt>
      <trkpt lat="42.89051" lon="-0.12049">
        <ele>1045.0903320312</ele>
        <time>2015-12-30T12:42:03Z</time>
      </trkpt>
      <trkpt lat="42.89048" lon="-0.1204">
        <ele>1041.7258300781</ele>
        <time>2015-12-30T12:42:14Z</time>
      </trkpt>
      <trkpt lat="42.8904" lon="-0.12029">
        <ele>1039.8032226562</ele>
        <time>2015-12-30T12:42:32Z</time>
      </trkpt>
      <trkpt lat="42.89039" lon="-0.12023">
        <ele>1036.4387207031</ele>
        <time>2015-12-30T12:42:59Z</time>
      </trkpt>
      <trkpt lat="42.89037" lon="-0.12023">
        <ele>1035.9577636719</ele>
        <time>2015-12-30T12:43:11Z</time>
      </trkpt>
      <trkpt lat="42.89037" lon="-0.12024">
        <ele>1034.5158691406</ele>
        <time>2015-12-30T12:43:16Z</time>
      </trkpt>
      <trkpt lat="42.89028" lon="-0.12028">
        <ele>1036.9191894531</ele>
        <time>2015-12-30T12:43:57Z</time>
      </trkpt>
      <trkpt lat="42.89035" lon="-0.12019">
        <ele>1035.9577636719</ele>
        <time>2015-12-30T12:44:14Z</time>
      </trkpt>
      <trkpt lat="42.89042" lon="-0.12025">
        <ele>1033.0737304688</ele>
        <time>2015-12-30T12:44:26Z</time>
      </trkpt>
      <trkpt lat="42.89048" lon="-0.12017">
        <ele>1031.1513671875</ele>
        <time>2015-12-30T12:44:43Z</time>
      </trkpt>
      <trkpt lat="42.89043" lon="-0.12004">
        <ele>1028.2673339844</ele>
        <time>2015-12-30T12:44:59Z</time>
      </trkpt>
      <trkpt lat="42.89037" lon="-0.11999">
        <ele>1024.9028320312</ele>
        <time>2015-12-30T12:45:08Z</time>
      </trkpt>
      <trkpt lat="42.89033" lon="-0.11991">
        <ele>1023.4609375</ele>
        <time>2015-12-30T12:45:21Z</time>
      </trkpt>
      <trkpt lat="42.89032" lon="-0.11981">
        <ele>1021.5380859375</ele>
        <time>2015-12-30T12:45:34Z</time>
      </trkpt>
      <trkpt lat="42.89029" lon="-0.11976">
        <ele>1019.6154785156</ele>
        <time>2015-12-30T12:45:47Z</time>
      </trkpt>
      <trkpt lat="42.8902" lon="-0.11962">
        <ele>1018.1733398438</ele>
        <time>2015-12-30T12:46:02Z</time>
      </trkpt>
      <trkpt lat="42.89027" lon="-0.1197">
        <ele>1017.6926269531</ele>
        <time>2015-12-30T12:46:14Z</time>
      </trkpt>
      <trkpt lat="42.8904" lon="-0.11977">
        <ele>1015.7702636719</ele>
        <time>2015-12-30T12:46:30Z</time>
      </trkpt>
      <trkpt lat="42.89044" lon="-0.11978">
        <ele>1014.328125</ele>
        <time>2015-12-30T12:46:42Z</time>
      </trkpt>
      <trkpt lat="42.89053" lon="-0.11981">
        <ele>1012.8862304688</ele>
        <time>2015-12-30T12:46:58Z</time>
      </trkpt>
      <trkpt lat="42.89064" lon="-0.11985">
        <ele>1010.9636230469</ele>
        <time>2015-12-30T12:47:16Z</time>
      </trkpt>
      <trkpt lat="42.89072" lon="-0.11985">
        <ele>1007.5991210938</ele>
        <time>2015-12-30T12:47:30Z</time>
      </trkpt>
      <trkpt lat="42.89079" lon="-0.11986">
        <ele>1005.6765136719</ele>
        <time>2015-12-30T12:47:42Z</time>
      </trkpt>
      <trkpt lat="42.89087" lon="-0.11988">
        <ele>1003.7536621094</ele>
        <time>2015-12-30T12:47:54Z</time>
      </trkpt>
      <trkpt lat="42.89099" lon="-0.11987">
        <ele>1001.3503417969</ele>
        <time>2015-12-30T12:48:10Z</time>
      </trkpt>
      <trkpt lat="42.891" lon="-0.11982">
        <ele>999.90844726562</ele>
        <time>2015-12-30T12:48:16Z</time>
      </trkpt>
      <trkpt lat="42.89099" lon="-0.11968">
        <ele>997.98583984375</ele>
        <time>2015-12-30T12:48:30Z</time>
      </trkpt>
      <trkpt lat="42.89096" lon="-0.11955">
        <ele>998.46630859375</ele>
        <time>2015-12-30T12:48:45Z</time>
      </trkpt>
      <trkpt lat="42.89097" lon="-0.11947">
        <ele>995.10180664062</ele>
        <time>2015-12-30T12:48:59Z</time>
      </trkpt>
      <trkpt lat="42.89095" lon="-0.11933">
        <ele>993.17919921875</ele>
        <time>2015-12-30T12:49:17Z</time>
      </trkpt>
      <trkpt lat="42.8909" lon="-0.11918">
        <ele>990.77587890625</ele>
        <time>2015-12-30T12:49:32Z</time>
      </trkpt>
      <trkpt lat="42.89085" lon="-0.11908">
        <ele>987.89184570312</ele>
        <time>2015-12-30T12:49:45Z</time>
      </trkpt>
      <trkpt lat="42.8908" lon="-0.11898">
        <ele>985.00805664062</ele>
        <time>2015-12-30T12:50:00Z</time>
      </trkpt>
      <trkpt lat="42.89075" lon="-0.11888">
        <ele>981.64331054688</ele>
        <time>2015-12-30T12:50:14Z</time>
      </trkpt>
      <trkpt lat="42.89072" lon="-0.11882">
        <ele>978.27880859375</ele>
        <time>2015-12-30T12:50:23Z</time>
      </trkpt>
      <trkpt lat="42.89066" lon="-0.11872">
        <ele>977.79809570312</ele>
        <time>2015-12-30T12:50:41Z</time>
      </trkpt>
      <trkpt lat="42.89061" lon="-0.11862">
        <ele>974.91430664062</ele>
        <time>2015-12-30T12:50:55Z</time>
      </trkpt>
      <trkpt lat="42.89056" lon="-0.11848">
        <ele>971.54931640625</ele>
        <time>2015-12-30T12:51:10Z</time>
      </trkpt>
      <trkpt lat="42.89056" lon="-0.11831">
        <ele>968.18481445312</ele>
        <time>2015-12-30T12:51:31Z</time>
      </trkpt>
      <trkpt lat="42.89053" lon="-0.11822">
        <ele>966.26220703125</ele>
        <time>2015-12-30T12:51:47Z</time>
      </trkpt>
      <trkpt lat="42.8905" lon="-0.11809">
        <ele>964.8203125</ele>
        <time>2015-12-30T12:52:04Z</time>
      </trkpt>
      <trkpt lat="42.89048" lon="-0.11798">
        <ele>963.37841796875</ele>
        <time>2015-12-30T12:52:22Z</time>
      </trkpt>
      <trkpt lat="42.89047" lon="-0.11793">
        <ele>960.49438476562</ele>
        <time>2015-12-30T12:52:41Z</time>
      </trkpt>
      <trkpt lat="42.89043" lon="-0.11784">
        <ele>957.61059570312</ele>
        <time>2015-12-30T12:52:55Z</time>
      </trkpt>
      <trkpt lat="42.89046" lon="-0.11766">
        <ele>955.68774414062</ele>
        <time>2015-12-30T12:53:11Z</time>
      </trkpt>
      <trkpt lat="42.89044" lon="-0.11743">
        <ele>953.28442382812</ele>
        <time>2015-12-30T12:53:30Z</time>
      </trkpt>
      <trkpt lat="42.89043" lon="-0.11731">
        <ele>951.36181640625</ele>
        <time>2015-12-30T12:53:39Z</time>
      </trkpt>
      <trkpt lat="42.89044" lon="-0.1172">
        <ele>948.95849609375</ele>
        <time>2015-12-30T12:53:49Z</time>
      </trkpt>
      <trkpt lat="42.89051" lon="-0.11698">
        <ele>947.5166015625</ele>
        <time>2015-12-30T12:54:07Z</time>
      </trkpt>
      <trkpt lat="42.89049" lon="-0.11697">
        <ele>947.99731445312</ele>
        <time>2015-12-30T12:54:10Z</time>
      </trkpt>
      <trkpt lat="42.89047" lon="-0.11692">
        <ele>947.03588867188</ele>
        <time>2015-12-30T12:54:22Z</time>
      </trkpt>
      <trkpt lat="42.89059" lon="-0.1168">
        <ele>944.15209960938</ele>
        <time>2015-12-30T12:54:38Z</time>
      </trkpt>
      <trkpt lat="42.89073" lon="-0.11659">
        <ele>941.74877929688</ele>
        <time>2015-12-30T12:54:59Z</time>
      </trkpt>
      <trkpt lat="42.89069" lon="-0.11633">
        <ele>938.86474609375</ele>
        <time>2015-12-30T12:55:18Z</time>
      </trkpt>
      <trkpt lat="42.89069" lon="-0.11632">
        <ele>938.38403320312</ele>
        <time>2015-12-30T12:55:19Z</time>
      </trkpt>
      <trkpt lat="42.89059" lon="-0.11626">
        <ele>935.01953125</ele>
        <time>2015-12-30T12:55:32Z</time>
      </trkpt>
      <trkpt lat="42.89047" lon="-0.11615">
        <ele>932.6162109375</ele>
        <time>2015-12-30T12:55:47Z</time>
      </trkpt>
      <trkpt lat="42.89042" lon="-0.11583">
        <ele>931.17431640625</ele>
        <time>2015-12-30T12:56:10Z</time>
      </trkpt>
      <trkpt lat="42.89037" lon="-0.11561">
        <ele>929.73217773438</ele>
        <time>2015-12-30T12:56:27Z</time>
      </trkpt>
      <trkpt lat="42.89036" lon="-0.11541">
        <ele>929.73217773438</ele>
        <time>2015-12-30T12:56:42Z</time>
      </trkpt>
      <trkpt lat="42.89039" lon="-0.11517">
        <ele>929.25146484375</ele>
        <time>2015-12-30T12:57:00Z</time>
      </trkpt>
      <trkpt lat="42.8904" lon="-0.11513">
        <ele>929.25146484375</ele>
        <time>2015-12-30T12:57:03Z</time>
      </trkpt>
      <trkpt lat="42.89041" lon="-0.11509">
        <ele>928.77099609375</ele>
        <time>2015-12-30T12:57:06Z</time>
      </trkpt>
    </trkseg>
  </trk>
</gpx>